CCA4580 ZBAA-OMDB
Flight info
| Callsign | CCA4580 |
|---|---|
| Flight time | 9h 36m |
| Altitude | 30100 |
| Route | IDKEX2G IDKEX B339 ASILA A575 UPREK W28 RURNU/K0909S0980 W28 ATBUG W66 NUKTI B215 IBANO W187 TUSLI W112 DJQ/K0900S1040 W112 PURPA/N0485F340 G325 KALAT G452 ZDN A453 DAVEP Q10 MOBET M324 PATAT L519 PUVAL |
| Aircraft | A346/H-SDE2E3FGHIJ3J4J5M1RWXY/LB1D1 |
Departure
| Time | 2026-04-20 17:00 |
|---|---|
| Airport | Beijing Capital International Airport (ZBAA) |
Arrival
| Time | 2026-04-21 02:37 |
|---|---|
| Airport | Dubai International Airport (OMDB) |
| Time | Latitude | Longitude | Altitude | Speed | Heading |
|---|---|---|---|---|---|
| 2026-04-20 16:43 | 40.07847 | 116.60280 | 134 ft | 0 kts | 200° |
| 2026-04-20 16:49 | 40.07858 | 116.60285 | 134 ft | 2 kts | 200° |
| 2026-04-20 16:49 | 40.07872 | 116.60294 | 134 ft | 2 kts | 215° |
| 2026-04-20 16:50 | 40.07884 | 116.60307 | 134 ft | 2 kts | 230° |
| 2026-04-20 16:50 | 40.07893 | 116.60324 | 134 ft | 2 kts | 244° |
| 2026-04-20 16:50 | 40.07898 | 116.60342 | 134 ft | 2 kts | 257° |
| 2026-04-20 16:50 | 40.07901 | 116.60362 | 134 ft | 2 kts | 270° |
| 2026-04-20 16:51 | 40.07899 | 116.60382 | 134 ft | 2 kts | 284° |
| 2026-04-20 16:51 | 40.07896 | 116.60395 | 134 ft | 0 kts | 292° |
| 2026-04-20 16:51 | 40.07895 | 116.60398 | 134 ft | 0 kts | 293° |
| 2026-04-20 16:54 | 40.07897 | 116.60392 | 134 ft | 2 kts | 296° |
| 2026-04-20 16:54 | 40.07908 | 116.60365 | 134 ft | 4 kts | 295° |
| 2026-04-20 16:55 | 40.07925 | 116.60317 | 134 ft | 7 kts | 295° |
| 2026-04-20 16:55 | 40.07949 | 116.60247 | 134 ft | 9 kts | 293° |
| 2026-04-20 16:55 | 40.07977 | 116.60160 | 134 ft | 11 kts | 293° |
| 2026-04-20 16:55 | 40.07997 | 116.60054 | 134 ft | 12 kts | 269° |
| 2026-04-20 16:56 | 40.07991 | 116.59954 | 134 ft | 9 kts | 264° |
| 2026-04-20 16:56 | 40.08024 | 116.59875 | 134 ft | 12 kts | 332° |
| 2026-04-20 16:56 | 40.08116 | 116.59848 | 134 ft | 14 kts | 352° |
| 2026-04-20 16:56 | 40.08217 | 116.59833 | 134 ft | 14 kts | 354° |
| 2026-04-20 16:57 | 40.08324 | 116.59817 | 134 ft | 15 kts | 354° |
| 2026-04-20 16:57 | 40.08435 | 116.59802 | 134 ft | 16 kts | 354° |
| 2026-04-20 16:57 | 40.08548 | 116.59782 | 134 ft | 16 kts | 352° |
| 2026-04-20 16:57 | 40.08667 | 116.59763 | 134 ft | 17 kts | 353° |
| 2026-04-20 16:58 | 40.08785 | 116.59744 | 134 ft | 16 kts | 354° |
| 2026-04-20 16:58 | 40.08895 | 116.59727 | 134 ft | 15 kts | 354° |
| 2026-04-20 16:58 | 40.08956 | 116.59714 | 134 ft | 6 kts | 333° |
| 2026-04-20 16:58 | 40.08981 | 116.59641 | 134 ft | 11 kts | 265° |
| 2026-04-20 16:59 | 40.08950 | 116.59544 | 134 ft | 12 kts | 232° |
| 2026-04-20 16:59 | 40.08871 | 116.59502 | 134 ft | 13 kts | 178° |
| 2026-04-20 16:59 | 40.08563 | 116.59540 | 134 ft | 77 kts | 173° |
| 2026-04-20 16:59 | 40.07823 | 116.59659 | 134 ft | 135 kts | 173° |
| 2026-04-20 17:00 | 40.05405 | 116.60043 | 470 ft | 192 kts | 173° |
| 2026-04-20 17:00 | 40.04060 | 116.60258 | 1029 ft | 193 kts | 174° |
| 2026-04-20 17:00 | 40.02696 | 116.60471 | 1631 ft | 196 kts | 174° |
| 2026-04-20 17:01 | 40.01321 | 116.60684 | 2254 ft | 198 kts | 174° |
| 2026-04-20 17:01 | 39.99954 | 116.60898 | 2856 ft | 199 kts | 174° |
| 2026-04-20 17:01 | 39.98566 | 116.61114 | 3447 ft | 201 kts | 174° |
| 2026-04-20 17:01 | 39.97149 | 116.61336 | 4034 ft | 203 kts | 174° |
| 2026-04-20 17:02 | 39.95729 | 116.61557 | 4600 ft | 203 kts | 174° |
| 2026-04-20 17:02 | 39.94331 | 116.61774 | 5032 ft | 202 kts | 175° |
| 2026-04-20 17:02 | 39.92938 | 116.61991 | 5420 ft | 204 kts | 175° |
| 2026-04-20 17:02 | 39.91507 | 116.62214 | 5813 ft | 205 kts | 175° |
| 2026-04-20 17:03 | 39.90092 | 116.62434 | 6199 ft | 206 kts | 175° |
| 2026-04-20 17:03 | 39.88641 | 116.62659 | 6595 ft | 207 kts | 175° |
| 2026-04-20 17:03 | 39.87200 | 116.62884 | 6986 ft | 209 kts | 175° |
| 2026-04-20 17:03 | 39.85751 | 116.63189 | 7368 ft | 211 kts | 161° |
| 2026-04-20 17:04 | 39.84557 | 116.64302 | 7684 ft | 218 kts | 128° |
| 2026-04-20 17:04 | 39.84018 | 116.66181 | 7883 ft | 231 kts | 94° |
| 2026-04-20 17:04 | 39.84179 | 116.68364 | 7921 ft | 252 kts | 83° |
| 2026-04-20 17:04 | 39.84473 | 116.70735 | 7919 ft | 277 kts | 82° |
| 2026-04-20 17:05 | 39.84791 | 116.73257 | 7901 ft | 284 kts | 82° |
| 2026-04-20 17:05 | 39.85107 | 116.75854 | 7893 ft | 285 kts | 82° |
| 2026-04-20 17:05 | 39.85406 | 116.78413 | 7889 ft | 285 kts | 83° |
| 2026-04-20 17:05 | 39.85706 | 116.81039 | 8058 ft | 293 kts | 83° |
| 2026-04-20 17:06 | 39.86001 | 116.83662 | 8725 ft | 292 kts | 83° |
| 2026-04-20 17:06 | 39.86294 | 116.86285 | 9368 ft | 292 kts | 83° |
| 2026-04-20 17:06 | 39.86593 | 116.88985 | 9927 ft | 295 kts | 83° |
| 2026-04-20 17:06 | 39.86886 | 116.91638 | 10376 ft | 302 kts | 82° |
| 2026-04-20 17:07 | 39.87191 | 116.94411 | 10630 ft | 316 kts | 82° |
| 2026-04-20 17:07 | 39.87511 | 116.97321 | 10880 ft | 330 kts | 82° |
| 2026-04-20 17:07 | 39.87846 | 117.00368 | 11136 ft | 344 kts | 82° |
| 2026-04-20 17:07 | 39.88243 | 117.03517 | 11385 ft | 358 kts | 74° |
| 2026-04-20 17:08 | 39.89341 | 117.06506 | 11617 ft | 370 kts | 51° |
| 2026-04-20 17:08 | 39.91275 | 117.08787 | 11878 ft | 378 kts | 28° |
| 2026-04-20 17:08 | 39.93726 | 117.09948 | 12363 ft | 378 kts | 6° |
| 2026-04-20 17:08 | 39.96346 | 117.09901 | 12985 ft | 376 kts | 350° |
| 2026-04-20 17:09 | 39.98965 | 117.09405 | 13607 ft | 377 kts | 349° |
| 2026-04-20 17:09 | 40.01590 | 117.08903 | 14148 ft | 381 kts | 349° |
| 2026-04-20 17:09 | 40.04252 | 117.08406 | 14700 ft | 384 kts | 348° |
| 2026-04-20 17:09 | 40.06896 | 117.07910 | 15244 ft | 387 kts | 348° |
| 2026-04-20 17:10 | 40.09588 | 117.07407 | 15781 ft | 390 kts | 348° |
| 2026-04-20 17:10 | 40.12307 | 117.06902 | 16308 ft | 393 kts | 348° |
| 2026-04-20 17:10 | 40.15020 | 117.06398 | 16819 ft | 396 kts | 347° |
| 2026-04-20 17:10 | 40.17755 | 117.05890 | 17320 ft | 399 kts | 347° |
| 2026-04-20 17:11 | 40.20524 | 117.05376 | 17812 ft | 401 kts | 347° |
| 2026-04-20 17:11 | 40.23294 | 117.04861 | 18289 ft | 404 kts | 347° |
| 2026-04-20 17:11 | 40.26086 | 117.04343 | 18755 ft | 407 kts | 346° |
| 2026-04-20 17:11 | 40.28901 | 117.03819 | 19216 ft | 410 kts | 346° |
| 2026-04-20 17:12 | 40.31747 | 117.03291 | 19671 ft | 413 kts | 346° |
| 2026-04-20 17:12 | 40.34642 | 117.02824 | 20105 ft | 418 kts | 348° |
| 2026-04-20 17:12 | 40.37466 | 117.02478 | 20533 ft | 421 kts | 348° |
| 2026-04-20 17:12 | 40.40415 | 117.02142 | 20957 ft | 424 kts | 348° |
| 2026-04-20 17:13 | 40.43410 | 117.01803 | 21372 ft | 427 kts | 348° |
| 2026-04-20 17:13 | 40.46392 | 117.01461 | 21784 ft | 429 kts | 348° |
| 2026-04-20 17:13 | 40.49365 | 117.01110 | 22180 ft | 431 kts | 346° |
| 2026-04-20 17:13 | 40.52255 | 117.00165 | 22538 ft | 418 kts | 329° |
| 2026-04-20 17:14 | 40.54737 | 116.98172 | 22922 ft | 406 kts | 313° |
| 2026-04-20 17:14 | 40.56615 | 116.95465 | 23266 ft | 399 kts | 301° |
| 2026-04-20 17:14 | 40.58289 | 116.92419 | 23644 ft | 401 kts | 300° |
| 2026-04-20 17:14 | 40.59925 | 116.89420 | 24002 ft | 404 kts | 300° |
| 2026-04-20 17:15 | 40.61572 | 116.86401 | 24368 ft | 406 kts | 299° |
| 2026-04-20 17:15 | 40.63232 | 116.83357 | 24758 ft | 408 kts | 299° |
| 2026-04-20 17:15 | 40.64919 | 116.80270 | 25157 ft | 409 kts | 299° |
| 2026-04-20 17:15 | 40.66584 | 116.77222 | 25518 ft | 410 kts | 299° |
| 2026-04-20 17:16 | 40.68264 | 116.74143 | 25891 ft | 412 kts | 299° |
| 2026-04-20 17:16 | 40.69941 | 116.71068 | 26256 ft | 413 kts | 299° |
| 2026-04-20 17:16 | 40.71613 | 116.68002 | 26610 ft | 414 kts | 299° |
| 2026-04-20 17:16 | 40.73288 | 116.64925 | 26962 ft | 415 kts | 299° |
| 2026-04-20 17:17 | 40.74986 | 116.61842 | 27300 ft | 418 kts | 302° |
| 2026-04-20 17:17 | 40.77139 | 116.59099 | 27583 ft | 436 kts | 316° |
| 2026-04-20 17:17 | 40.79845 | 116.57162 | 27864 ft | 456 kts | 330° |
| 2026-04-20 17:17 | 40.83029 | 116.56190 | 28202 ft | 476 kts | 345° |
| 2026-04-20 17:18 | 40.86350 | 116.55846 | 28665 ft | 476 kts | 346° |
| 2026-04-20 17:18 | 40.89625 | 116.55554 | 29028 ft | 476 kts | 346° |
| 2026-04-20 17:18 | 40.92954 | 116.55260 | 29303 ft | 478 kts | 346° |
| 2026-04-20 17:18 | 40.96271 | 116.54961 | 29571 ft | 479 kts | 346° |
| 2026-04-20 17:19 | 40.99618 | 116.54654 | 29865 ft | 480 kts | 346° |
| 2026-04-20 17:19 | 41.02945 | 116.54343 | 30000 ft | 480 kts | 346° |
| 2026-04-20 17:19 | 41.06289 | 116.54029 | 30001 ft | 479 kts | 346° |
| 2026-04-20 17:20 | 41.13010 | 116.53399 | 30004 ft | 478 kts | 347° |
| 2026-04-20 17:20 | 41.19709 | 116.52590 | 30003 ft | 470 kts | 341° |
| 2026-04-20 17:21 | 41.25904 | 116.50348 | 30003 ft | 455 kts | 330° |
| 2026-04-20 17:21 | 41.31489 | 116.46657 | 30005 ft | 444 kts | 322° |
| 2026-04-20 17:22 | 41.36835 | 116.42436 | 30004 ft | 444 kts | 321° |
| 2026-04-20 17:22 | 41.42147 | 116.38211 | 30004 ft | 444 kts | 321° |
| 2026-04-20 17:23 | 41.47459 | 116.33988 | 30007 ft | 444 kts | 321° |
| 2026-04-20 17:23 | 41.52773 | 116.29762 | 30004 ft | 443 kts | 321° |
| 2026-04-20 17:24 | 41.58055 | 116.25555 | 30047 ft | 443 kts | 321° |
| 2026-04-20 17:24 | 41.63359 | 116.21325 | 30100 ft | 443 kts | 321° |
| 2026-04-20 17:25 | 41.68634 | 116.17108 | 30125 ft | 442 kts | 321° |
| 2026-04-20 17:25 | 41.73932 | 116.12865 | 30134 ft | 442 kts | 321° |
| 2026-04-20 17:26 | 41.79225 | 116.08617 | 30139 ft | 442 kts | 321° |
| 2026-04-20 17:26 | 41.84509 | 116.04366 | 30139 ft | 443 kts | 321° |
| 2026-04-20 17:27 | 41.89777 | 116.00114 | 30138 ft | 441 kts | 319° |
| 2026-04-20 17:27 | 41.94523 | 115.95058 | 30139 ft | 429 kts | 308° |
| 2026-04-20 17:28 | 41.98237 | 115.88957 | 30139 ft | 418 kts | 297° |
| 2026-04-20 17:28 | 42.01140 | 115.82172 | 30139 ft | 416 kts | 294° |
| 2026-04-20 17:29 | 42.03910 | 115.75363 | 30139 ft | 416 kts | 294° |
| 2026-04-20 17:29 | 42.06696 | 115.68480 | 30138 ft | 416 kts | 294° |
| 2026-04-20 17:30 | 42.09453 | 115.61646 | 30138 ft | 416 kts | 294° |
| 2026-04-20 17:30 | 42.12228 | 115.54751 | 30139 ft | 416 kts | 294° |
| 2026-04-20 17:31 | 42.14986 | 115.47882 | 30139 ft | 416 kts | 294° |
| 2026-04-20 17:31 | 42.17739 | 115.41003 | 30139 ft | 415 kts | 294° |
| 2026-04-20 17:32 | 42.20475 | 115.34110 | 30142 ft | 414 kts | 291° |
| 2026-04-20 17:32 | 42.22619 | 115.26967 | 30140 ft | 410 kts | 284° |
| 2026-04-20 17:33 | 42.23929 | 115.19502 | 30139 ft | 407 kts | 277° |
| 2026-04-20 17:33 | 42.24554 | 115.11900 | 30140 ft | 406 kts | 274° |
| 2026-04-20 17:34 | 42.25082 | 115.04334 | 30139 ft | 405 kts | 274° |
| 2026-04-20 17:34 | 42.25599 | 114.96741 | 30140 ft | 404 kts | 274° |
| 2026-04-20 17:35 | 42.26106 | 114.89189 | 30139 ft | 403 kts | 274° |
| 2026-04-20 17:35 | 42.26604 | 114.81657 | 30139 ft | 403 kts | 274° |
| 2026-04-20 17:36 | 42.27097 | 114.74100 | 30139 ft | 404 kts | 274° |
| 2026-04-20 17:36 | 42.27583 | 114.66516 | 30141 ft | 403 kts | 274° |
| 2026-04-20 17:37 | 42.28066 | 114.58936 | 30152 ft | 403 kts | 274° |
| 2026-04-20 17:37 | 42.27769 | 114.51400 | 30172 ft | 403 kts | 259° |
| 2026-04-20 17:38 | 42.26528 | 114.43993 | 30194 ft | 403 kts | 259° |
| 2026-04-20 17:38 | 42.25285 | 114.36615 | 30210 ft | 403 kts | 259° |
| 2026-04-20 17:39 | 42.24039 | 114.29245 | 30218 ft | 403 kts | 258° |
| 2026-04-20 17:39 | 42.22787 | 114.21869 | 30219 ft | 403 kts | 258° |
| 2026-04-20 17:40 | 42.21521 | 114.14436 | 30439 ft | 409 kts | 258° |
| 2026-04-20 17:40 | 42.20879 | 114.10674 | 30762 ft | 407 kts | 258° |
| 2026-04-20 17:40 | 42.20250 | 114.06993 | 31106 ft | 406 kts | 258° |
| 2026-04-20 17:40 | 42.19610 | 114.03258 | 31456 ft | 404 kts | 258° |
| 2026-04-20 17:41 | 42.18981 | 113.99603 | 31787 ft | 402 kts | 258° |
| 2026-04-20 17:41 | 42.18352 | 113.95946 | 32095 ft | 400 kts | 258° |
| 2026-04-20 17:41 | 42.17716 | 113.92270 | 32211 ft | 400 kts | 258° |
| 2026-04-20 17:42 | 42.16449 | 113.84950 | 32217 ft | 399 kts | 258° |
| 2026-04-20 17:42 | 42.15183 | 113.77667 | 32218 ft | 399 kts | 258° |
| 2026-04-20 17:43 | 42.13911 | 113.70386 | 32219 ft | 399 kts | 258° |
| 2026-04-20 17:43 | 42.12634 | 113.63105 | 32218 ft | 399 kts | 258° |
| 2026-04-20 17:44 | 42.11349 | 113.55808 | 32220 ft | 399 kts | 258° |
| 2026-04-20 17:44 | 42.10056 | 113.48519 | 32220 ft | 399 kts | 258° |
| 2026-04-20 17:45 | 42.08700 | 113.41257 | 32219 ft | 399 kts | 258° |
| 2026-04-20 17:45 | 42.07333 | 113.34003 | 32222 ft | 399 kts | 257° |
| 2026-04-20 17:46 | 42.05965 | 113.26783 | 32220 ft | 399 kts | 257° |
| 2026-04-20 17:46 | 42.04582 | 113.19490 | 32220 ft | 399 kts | 257° |
| 2026-04-20 17:47 | 42.03206 | 113.12255 | 32220 ft | 399 kts | 257° |
| 2026-04-20 17:47 | 42.01840 | 113.05056 | 32220 ft | 399 kts | 257° |
| 2026-04-20 17:48 | 42.00447 | 112.97778 | 32218 ft | 400 kts | 257° |
| 2026-04-20 17:48 | 41.99044 | 112.90483 | 32218 ft | 403 kts | 257° |
| 2026-04-20 17:49 | 41.97629 | 112.83142 | 32218 ft | 404 kts | 257° |
| 2026-04-20 17:49 | 41.96336 | 112.75822 | 32218 ft | 406 kts | 261° |
| 2026-04-20 17:50 | 41.95678 | 112.68261 | 32219 ft | 405 kts | 267° |
| 2026-04-20 17:50 | 41.95735 | 112.60664 | 32219 ft | 406 kts | 273° |
| 2026-04-20 17:51 | 41.96514 | 112.53130 | 32221 ft | 409 kts | 279° |
| 2026-04-20 17:51 | 41.97908 | 112.45673 | 32220 ft | 410 kts | 282° |
| 2026-04-20 17:52 | 41.99390 | 112.38277 | 32219 ft | 410 kts | 282° |
| 2026-04-20 17:52 | 42.00882 | 112.30856 | 32222 ft | 410 kts | 282° |
| 2026-04-20 17:53 | 42.02366 | 112.23471 | 32219 ft | 409 kts | 282° |
| 2026-04-20 17:53 | 42.03856 | 112.16045 | 32218 ft | 410 kts | 282° |
| 2026-04-20 17:54 | 42.05339 | 112.08621 | 32219 ft | 409 kts | 282° |
| 2026-04-20 17:54 | 42.06765 | 112.01457 | 32218 ft | 410 kts | 282° |
| 2026-04-20 17:55 | 42.08242 | 111.94022 | 32218 ft | 410 kts | 282° |
| 2026-04-20 17:55 | 42.09709 | 111.86594 | 32219 ft | 410 kts | 282° |
| 2026-04-20 17:56 | 42.11177 | 111.79143 | 32219 ft | 409 kts | 281° |
| 2026-04-20 17:56 | 42.12638 | 111.71688 | 32219 ft | 410 kts | 282° |
| 2026-04-20 17:57 | 42.14080 | 111.64301 | 32219 ft | 409 kts | 282° |
| 2026-04-20 17:57 | 42.15535 | 111.56831 | 32219 ft | 410 kts | 282° |
| 2026-04-20 17:58 | 42.16973 | 111.49404 | 32219 ft | 410 kts | 281° |
| 2026-04-20 17:58 | 42.18347 | 111.41901 | 32219 ft | 409 kts | 279° |
| 2026-04-20 17:59 | 42.19210 | 111.34354 | 32222 ft | 407 kts | 274° |
| 2026-04-20 17:59 | 42.19530 | 111.26728 | 32221 ft | 406 kts | 269° |
| 2026-04-20 18:00 | 42.19300 | 111.19141 | 32219 ft | 406 kts | 264° |
| 2026-04-20 18:00 | 42.18585 | 111.11572 | 32220 ft | 406 kts | 262° |
| 2026-04-20 18:01 | 42.17791 | 111.04005 | 32219 ft | 406 kts | 262° |
| 2026-04-20 18:01 | 42.16985 | 110.96474 | 32220 ft | 406 kts | 262° |
| 2026-04-20 18:02 | 42.16165 | 110.88907 | 32219 ft | 407 kts | 262° |
| 2026-04-20 18:02 | 42.15340 | 110.81361 | 32219 ft | 407 kts | 262° |
| 2026-04-20 18:03 | 42.14509 | 110.73827 | 32219 ft | 406 kts | 262° |
| 2026-04-20 18:03 | 42.13671 | 110.66262 | 32219 ft | 406 kts | 262° |
| 2026-04-20 18:04 | 42.12831 | 110.58733 | 32220 ft | 407 kts | 262° |
| 2026-04-20 18:04 | 42.11982 | 110.51175 | 32220 ft | 407 kts | 262° |
| 2026-04-20 18:05 | 42.10701 | 110.39864 | 32220 ft | 407 kts | 262° |
| 2026-04-20 18:05 | 42.09843 | 110.32327 | 32223 ft | 407 kts | 261° |
| 2026-04-20 18:06 | 42.08978 | 110.24789 | 32220 ft | 407 kts | 261° |
| 2026-04-20 18:06 | 42.08108 | 110.17262 | 32219 ft | 406 kts | 261° |
| 2026-04-20 18:07 | 42.07235 | 110.09735 | 32219 ft | 407 kts | 261° |
| 2026-04-20 18:07 | 42.06358 | 110.02224 | 32219 ft | 407 kts | 261° |
| 2026-04-20 18:08 | 42.05470 | 109.94672 | 32219 ft | 406 kts | 261° |
| 2026-04-20 18:08 | 42.04584 | 109.87173 | 32219 ft | 407 kts | 262° |
| 2026-04-20 18:09 | 42.03692 | 109.79654 | 32220 ft | 407 kts | 261° |
| 2026-04-20 18:09 | 42.02794 | 109.72132 | 32220 ft | 406 kts | 261° |
| 2026-04-20 18:10 | 42.01884 | 109.64577 | 32219 ft | 407 kts | 261° |
| 2026-04-20 18:10 | 42.00980 | 109.57093 | 32220 ft | 407 kts | 261° |
| 2026-04-20 18:11 | 42.00068 | 109.49582 | 32220 ft | 406 kts | 261° |
| 2026-04-20 18:11 | 41.99144 | 109.42038 | 32220 ft | 406 kts | 261° |
| 2026-04-20 18:12 | 41.98221 | 109.34528 | 32221 ft | 407 kts | 261° |
| 2026-04-20 18:12 | 41.97291 | 109.27016 | 32220 ft | 407 kts | 261° |
| 2026-04-20 18:13 | 41.96358 | 109.19501 | 32219 ft | 407 kts | 261° |
| 2026-04-20 18:13 | 41.95423 | 109.12035 | 32219 ft | 407 kts | 261° |
| 2026-04-20 18:14 | 41.94476 | 109.04511 | 32219 ft | 407 kts | 261° |
| 2026-04-20 18:14 | 41.93530 | 108.97023 | 32219 ft | 407 kts | 261° |
| 2026-04-20 18:15 | 41.92578 | 108.89523 | 32219 ft | 408 kts | 261° |
| 2026-04-20 18:15 | 41.91615 | 108.81982 | 32220 ft | 407 kts | 261° |
| 2026-04-20 18:16 | 41.90651 | 108.74467 | 32219 ft | 408 kts | 261° |
| 2026-04-20 18:16 | 41.89679 | 108.66956 | 32220 ft | 408 kts | 261° |
| 2026-04-20 18:17 | 41.88696 | 108.59377 | 32219 ft | 408 kts | 261° |
| 2026-04-20 18:17 | 41.87714 | 108.51869 | 32219 ft | 407 kts | 261° |
| 2026-04-20 18:18 | 41.86723 | 108.44315 | 32219 ft | 408 kts | 261° |
| 2026-04-20 18:18 | 41.85739 | 108.36854 | 32219 ft | 407 kts | 261° |
| 2026-04-20 18:19 | 41.84739 | 108.29317 | 32221 ft | 407 kts | 261° |
| 2026-04-20 18:19 | 41.83741 | 108.21824 | 32220 ft | 408 kts | 261° |
| 2026-04-20 18:20 | 41.82740 | 108.14350 | 32220 ft | 408 kts | 261° |
| 2026-04-20 18:20 | 41.81728 | 108.06838 | 32219 ft | 408 kts | 261° |
| 2026-04-20 18:21 | 41.80712 | 107.99344 | 32219 ft | 408 kts | 261° |
| 2026-04-20 18:21 | 41.79693 | 107.91846 | 32219 ft | 408 kts | 261° |
| 2026-04-20 18:22 | 41.78669 | 107.84361 | 32219 ft | 407 kts | 261° |
| 2026-04-20 18:22 | 41.77644 | 107.76897 | 32219 ft | 408 kts | 261° |
| 2026-04-20 18:23 | 41.76603 | 107.69369 | 32219 ft | 408 kts | 261° |
| 2026-04-20 18:23 | 41.75565 | 107.61891 | 32219 ft | 408 kts | 261° |
| 2026-04-20 18:24 | 41.74524 | 107.54434 | 32219 ft | 408 kts | 261° |
| 2026-04-20 18:24 | 41.73480 | 107.46993 | 32219 ft | 408 kts | 261° |
| 2026-04-20 18:25 | 41.72427 | 107.39520 | 32219 ft | 408 kts | 261° |
| 2026-04-20 18:25 | 41.71370 | 107.32058 | 32223 ft | 408 kts | 260° |
| 2026-04-20 18:26 | 41.70306 | 107.24586 | 32220 ft | 408 kts | 260° |
| 2026-04-20 18:26 | 41.69241 | 107.17135 | 32220 ft | 408 kts | 260° |
| 2026-04-20 18:27 | 41.68167 | 107.09662 | 32219 ft | 408 kts | 260° |
| 2026-04-20 18:27 | 41.67088 | 107.02197 | 32219 ft | 408 kts | 260° |
| 2026-04-20 18:28 | 41.66011 | 106.94765 | 32218 ft | 409 kts | 260° |
| 2026-04-20 18:28 | 41.64910 | 106.87212 | 32218 ft | 412 kts | 260° |
| 2026-04-20 18:29 | 41.63806 | 106.79675 | 32218 ft | 414 kts | 260° |
| 2026-04-20 18:29 | 41.62697 | 106.72150 | 32219 ft | 414 kts | 260° |
| 2026-04-20 18:30 | 41.61575 | 106.64572 | 32219 ft | 414 kts | 260° |
| 2026-04-20 18:30 | 41.60448 | 106.56997 | 32219 ft | 414 kts | 260° |
| 2026-04-20 18:31 | 41.59317 | 106.49430 | 32219 ft | 414 kts | 260° |
| 2026-04-20 18:31 | 41.58181 | 106.41872 | 32219 ft | 414 kts | 260° |
| 2026-04-20 18:32 | 41.57038 | 106.34296 | 32220 ft | 415 kts | 259° |
| 2026-04-20 18:32 | 41.55885 | 106.26708 | 32220 ft | 415 kts | 259° |
| 2026-04-20 18:33 | 41.54736 | 106.19170 | 32217 ft | 416 kts | 259° |
| 2026-04-20 18:33 | 41.53409 | 106.11639 | 32211 ft | 417 kts | 256° |
| 2026-04-20 18:34 | 41.51580 | 106.04238 | 32204 ft | 419 kts | 251° |
| 2026-04-20 18:34 | 41.49427 | 105.97018 | 32199 ft | 419 kts | 251° |
| 2026-04-20 18:35 | 41.47250 | 105.89764 | 32196 ft | 419 kts | 251° |
| 2026-04-20 18:35 | 41.45085 | 105.82590 | 32195 ft | 419 kts | 250° |
| 2026-04-20 18:36 | 41.42881 | 105.75324 | 32195 ft | 419 kts | 250° |
| 2026-04-20 18:36 | 41.40694 | 105.68141 | 32195 ft | 419 kts | 250° |
| 2026-04-20 18:37 | 41.38499 | 105.60947 | 32195 ft | 419 kts | 250° |
| 2026-04-20 18:37 | 41.36272 | 105.53730 | 32195 ft | 419 kts | 250° |
| 2026-04-20 18:38 | 41.34039 | 105.46539 | 32195 ft | 419 kts | 250° |
| 2026-04-20 18:38 | 41.31808 | 105.39371 | 32195 ft | 419 kts | 250° |
| 2026-04-20 18:39 | 41.29561 | 105.32175 | 32198 ft | 420 kts | 250° |
| 2026-04-20 18:39 | 41.27317 | 105.25010 | 32195 ft | 420 kts | 250° |
| 2026-04-20 18:40 | 41.25059 | 105.17814 | 32195 ft | 419 kts | 250° |
| 2026-04-20 18:40 | 41.22814 | 105.10680 | 32195 ft | 420 kts | 250° |
| 2026-04-20 18:41 | 41.20553 | 105.03513 | 32195 ft | 419 kts | 249° |
| 2026-04-20 18:41 | 41.18283 | 104.96345 | 32195 ft | 419 kts | 249° |
| 2026-04-20 18:42 | 41.16022 | 104.89217 | 32195 ft | 419 kts | 249° |
| 2026-04-20 18:42 | 41.13761 | 104.82120 | 32195 ft | 418 kts | 249° |
| 2026-04-20 18:43 | 41.11476 | 104.74970 | 32195 ft | 419 kts | 249° |
| 2026-04-20 18:43 | 41.09222 | 104.67859 | 32195 ft | 418 kts | 250° |
| 2026-04-20 18:44 | 41.07055 | 104.60705 | 32195 ft | 417 kts | 250° |
| 2026-04-20 18:44 | 41.04894 | 104.53594 | 32195 ft | 416 kts | 250° |
| 2026-04-20 18:45 | 41.02718 | 104.46486 | 32196 ft | 416 kts | 250° |
| 2026-04-20 18:45 | 41.01037 | 104.39165 | 32195 ft | 414 kts | 259° |
| 2026-04-20 18:46 | 41.00421 | 104.31616 | 32198 ft | 416 kts | 267° |
| 2026-04-20 18:46 | 41.00882 | 104.23918 | 32195 ft | 419 kts | 277° |
| 2026-04-20 18:47 | 41.02426 | 104.16468 | 32195 ft | 424 kts | 285° |
| 2026-04-20 18:47 | 41.04487 | 104.09141 | 32195 ft | 424 kts | 286° |
| 2026-04-20 18:48 | 41.06573 | 104.01836 | 32195 ft | 424 kts | 286° |
| 2026-04-20 18:48 | 41.08670 | 103.94501 | 32195 ft | 424 kts | 287° |
| 2026-04-20 18:49 | 41.10764 | 103.87171 | 32195 ft | 424 kts | 287° |
| 2026-04-20 18:49 | 41.12851 | 103.79844 | 32195 ft | 424 kts | 287° |
| 2026-04-20 18:50 | 41.14930 | 103.72527 | 32195 ft | 424 kts | 287° |
| 2026-04-20 18:50 | 41.17011 | 103.65180 | 32195 ft | 424 kts | 287° |
| 2026-04-20 18:51 | 41.19079 | 103.57861 | 32195 ft | 424 kts | 287° |
| 2026-04-20 18:51 | 41.21143 | 103.50530 | 32195 ft | 424 kts | 287° |
| 2026-04-20 18:52 | 41.23209 | 103.43172 | 32195 ft | 424 kts | 287° |
| 2026-04-20 18:52 | 41.25272 | 103.35801 | 32195 ft | 424 kts | 287° |
| 2026-04-20 18:53 | 41.27325 | 103.28443 | 32196 ft | 424 kts | 286° |
| 2026-04-20 18:53 | 41.29376 | 103.21072 | 32195 ft | 424 kts | 286° |
| 2026-04-20 18:54 | 41.31407 | 103.13747 | 32194 ft | 425 kts | 286° |
| 2026-04-20 18:54 | 41.33462 | 103.06309 | 32194 ft | 427 kts | 286° |
| 2026-04-20 18:55 | 41.35507 | 102.98888 | 32194 ft | 428 kts | 287° |
| 2026-04-20 18:55 | 41.37649 | 102.91441 | 32194 ft | 431 kts | 287° |
| 2026-04-20 18:56 | 41.39826 | 102.83933 | 32195 ft | 431 kts | 287° |
| 2026-04-20 18:56 | 41.41973 | 102.76469 | 32195 ft | 431 kts | 287° |
| 2026-04-20 18:57 | 41.44118 | 102.68985 | 32195 ft | 431 kts | 287° |
| 2026-04-20 18:57 | 41.46267 | 102.61546 | 32195 ft | 431 kts | 287° |
| 2026-04-20 18:58 | 41.48411 | 102.54100 | 32195 ft | 431 kts | 287° |
| 2026-04-20 18:58 | 41.50567 | 102.46572 | 32195 ft | 431 kts | 287° |
| 2026-04-20 18:59 | 41.52702 | 102.39098 | 32195 ft | 431 kts | 287° |
| 2026-04-20 18:59 | 41.54829 | 102.31622 | 32198 ft | 431 kts | 287° |
| 2026-04-20 19:00 | 41.56966 | 102.24093 | 32195 ft | 431 kts | 287° |
| 2026-04-20 19:00 | 41.59089 | 102.16590 | 32195 ft | 431 kts | 287° |
| 2026-04-20 19:01 | 41.61205 | 102.09089 | 32195 ft | 431 kts | 287° |
| 2026-04-20 19:01 | 41.63319 | 102.01574 | 32195 ft | 430 kts | 287° |
| 2026-04-20 19:02 | 41.65418 | 101.94089 | 32195 ft | 431 kts | 287° |
| 2026-04-20 19:02 | 41.67517 | 101.86580 | 32195 ft | 431 kts | 287° |
| 2026-04-20 19:03 | 41.69621 | 101.79027 | 32195 ft | 431 kts | 287° |
| 2026-04-20 19:03 | 41.71714 | 101.71499 | 32194 ft | 431 kts | 287° |
| 2026-04-20 19:04 | 41.73801 | 101.63964 | 32194 ft | 430 kts | 287° |
| 2026-04-20 19:04 | 41.75878 | 101.56438 | 32194 ft | 431 kts | 287° |
| 2026-04-20 19:05 | 41.77954 | 101.48891 | 32195 ft | 431 kts | 287° |
| 2026-04-20 19:05 | 41.80023 | 101.41341 | 32194 ft | 431 kts | 287° |
| 2026-04-20 19:06 | 41.82070 | 101.33752 | 32196 ft | 430 kts | 284° |
| 2026-04-20 19:06 | 41.83709 | 101.26046 | 32196 ft | 427 kts | 280° |
| 2026-04-20 19:07 | 41.84812 | 101.18241 | 32195 ft | 426 kts | 276° |
| 2026-04-20 19:07 | 41.85387 | 101.10360 | 32195 ft | 425 kts | 271° |
| 2026-04-20 19:08 | 41.85704 | 100.98462 | 32194 ft | 425 kts | 270° |
| 2026-04-20 19:09 | 41.85893 | 100.90505 | 32194 ft | 427 kts | 271° |
| 2026-04-20 19:09 | 41.86074 | 100.82498 | 32194 ft | 429 kts | 271° |
| 2026-04-20 19:10 | 41.86252 | 100.74483 | 32194 ft | 431 kts | 271° |
| 2026-04-20 19:10 | 41.86425 | 100.66406 | 32194 ft | 431 kts | 271° |
| 2026-04-20 19:11 | 41.86592 | 100.58341 | 32193 ft | 431 kts | 271° |
| 2026-04-20 19:11 | 41.86752 | 100.50291 | 32182 ft | 431 kts | 271° |
| 2026-04-20 19:12 | 41.86907 | 100.42233 | 32173 ft | 431 kts | 271° |
| 2026-04-20 19:12 | 41.87055 | 100.34191 | 32170 ft | 431 kts | 270° |
| 2026-04-20 19:13 | 41.87197 | 100.26124 | 32168 ft | 431 kts | 270° |
| 2026-04-20 19:13 | 41.87334 | 100.18103 | 32167 ft | 431 kts | 270° |
| 2026-04-20 19:14 | 41.87466 | 100.10031 | 32167 ft | 431 kts | 270° |
| 2026-04-20 19:14 | 41.87593 | 100.01917 | 32167 ft | 431 kts | 270° |
| 2026-04-20 19:15 | 41.87713 | 99.93897 | 32167 ft | 431 kts | 270° |
| 2026-04-20 19:15 | 41.87826 | 99.85824 | 32166 ft | 431 kts | 270° |
| 2026-04-20 19:16 | 41.87935 | 99.77790 | 32166 ft | 431 kts | 270° |
| 2026-04-20 19:16 | 41.88038 | 99.69739 | 32166 ft | 431 kts | 270° |
| 2026-04-20 19:17 | 41.88136 | 99.61667 | 32166 ft | 431 kts | 270° |
| 2026-04-20 19:17 | 41.88227 | 99.53588 | 32166 ft | 431 kts | 270° |
| 2026-04-20 19:18 | 41.88313 | 99.45586 | 32166 ft | 431 kts | 270° |
| 2026-04-20 19:18 | 41.88394 | 99.37483 | 32166 ft | 431 kts | 270° |
| 2026-04-20 19:19 | 41.88469 | 99.29464 | 32168 ft | 431 kts | 270° |
| 2026-04-20 19:19 | 41.88538 | 99.21388 | 32167 ft | 431 kts | 270° |
| 2026-04-20 19:20 | 41.88602 | 99.13315 | 32167 ft | 431 kts | 270° |
| 2026-04-20 19:20 | 41.88660 | 99.05244 | 32166 ft | 432 kts | 270° |
| 2026-04-20 19:21 | 41.88713 | 98.97184 | 32166 ft | 434 kts | 270° |
| 2026-04-20 19:21 | 41.88760 | 98.89027 | 32166 ft | 437 kts | 270° |
| 2026-04-20 19:22 | 41.88801 | 98.80853 | 32167 ft | 438 kts | 270° |
| 2026-04-20 19:22 | 41.88837 | 98.72639 | 32166 ft | 438 kts | 270° |
| 2026-04-20 19:23 | 41.88867 | 98.64458 | 32166 ft | 438 kts | 270° |
| 2026-04-20 19:23 | 41.88892 | 98.56272 | 32166 ft | 438 kts | 270° |
| 2026-04-20 19:24 | 41.88909 | 98.48061 | 32166 ft | 438 kts | 270° |
| 2026-04-20 19:24 | 41.88921 | 98.39856 | 32166 ft | 438 kts | 270° |
| 2026-04-20 19:25 | 41.88929 | 98.31699 | 32168 ft | 438 kts | 269° |
| 2026-04-20 19:25 | 41.88929 | 98.23475 | 32166 ft | 438 kts | 269° |
| 2026-04-20 19:26 | 41.88924 | 98.15332 | 32167 ft | 438 kts | 269° |
| 2026-04-20 19:26 | 41.88914 | 98.07097 | 32166 ft | 438 kts | 269° |
| 2026-04-20 19:27 | 41.88897 | 97.98920 | 32168 ft | 438 kts | 269° |
| 2026-04-20 19:27 | 41.88874 | 97.90690 | 32167 ft | 438 kts | 269° |
| 2026-04-20 19:28 | 41.88846 | 97.82519 | 32166 ft | 438 kts | 269° |
| 2026-04-20 19:28 | 41.88811 | 97.74297 | 32166 ft | 438 kts | 269° |
| 2026-04-20 19:29 | 41.88771 | 97.66119 | 32166 ft | 438 kts | 269° |
| 2026-04-20 19:29 | 41.88726 | 97.57947 | 32167 ft | 438 kts | 269° |
| 2026-04-20 19:30 | 41.88673 | 97.49726 | 32166 ft | 438 kts | 269° |
| 2026-04-20 19:30 | 41.88616 | 97.41578 | 32166 ft | 438 kts | 269° |
| 2026-04-20 19:31 | 41.88552 | 97.33315 | 32167 ft | 438 kts | 269° |
| 2026-04-20 19:31 | 41.88484 | 97.25151 | 32166 ft | 438 kts | 269° |
| 2026-04-20 19:32 | 41.88409 | 97.16947 | 32166 ft | 439 kts | 268° |
| 2026-04-20 19:32 | 41.88324 | 97.08722 | 32166 ft | 439 kts | 268° |
| 2026-04-20 19:33 | 41.88235 | 97.00507 | 32167 ft | 440 kts | 268° |
| 2026-04-20 19:33 | 41.88141 | 96.92282 | 32166 ft | 441 kts | 269° |
| 2026-04-20 19:34 | 41.88041 | 96.84052 | 32165 ft | 441 kts | 269° |
| 2026-04-20 19:34 | 41.87937 | 96.75801 | 32166 ft | 442 kts | 269° |
| 2026-04-20 19:35 | 41.87825 | 96.67539 | 32166 ft | 441 kts | 269° |
| 2026-04-20 19:35 | 41.87709 | 96.59298 | 32165 ft | 441 kts | 269° |
| 2026-04-20 19:36 | 41.87585 | 96.51007 | 32163 ft | 442 kts | 269° |
| 2026-04-20 19:36 | 41.87455 | 96.42772 | 32165 ft | 442 kts | 269° |
| 2026-04-20 19:37 | 41.87319 | 96.34491 | 32177 ft | 442 kts | 268° |
| 2026-04-20 19:37 | 41.87174 | 96.26225 | 32205 ft | 441 kts | 268° |
| 2026-04-20 19:38 | 41.87096 | 96.17988 | 32237 ft | 441 kts | 269° |
| 2026-04-20 19:38 | 41.87069 | 96.09716 | 32255 ft | 441 kts | 269° |
| 2026-04-20 19:39 | 41.87029 | 96.01511 | 32267 ft | 441 kts | 269° |
| 2026-04-20 19:39 | 41.86975 | 95.93226 | 32271 ft | 441 kts | 269° |
| 2026-04-20 19:40 | 41.86915 | 95.85001 | 32272 ft | 440 kts | 269° |
| 2026-04-20 19:40 | 41.86845 | 95.76772 | 32273 ft | 440 kts | 269° |
| 2026-04-20 19:41 | 41.86768 | 95.68517 | 32273 ft | 441 kts | 269° |
| 2026-04-20 19:41 | 41.86686 | 95.60326 | 32274 ft | 440 kts | 269° |
| 2026-04-20 19:42 | 41.86599 | 95.52078 | 32270 ft | 441 kts | 269° |
| 2026-04-20 19:42 | 41.86501 | 95.43849 | 32274 ft | 440 kts | 269° |
| 2026-04-20 19:43 | 41.86418 | 95.36935 | 32273 ft | 441 kts | 269° |
| 2026-04-20 19:43 | 41.85870 | 95.31509 | 32272 ft | 441 kts | 254° |
| 2026-04-20 19:43 | 41.84726 | 95.27697 | 32273 ft | 443 kts | 243° |
| 2026-04-20 19:43 | 41.82996 | 95.24236 | 32275 ft | 447 kts | 232° |
| 2026-04-20 19:44 | 41.80738 | 95.21297 | 32272 ft | 452 kts | 221° |
| 2026-04-20 19:44 | 41.78053 | 95.19049 | 32274 ft | 460 kts | 210° |
| 2026-04-20 19:44 | 41.75026 | 95.17596 | 32275 ft | 469 kts | 198° |
| 2026-04-20 19:45 | 41.68579 | 95.16067 | 32276 ft | 472 kts | 194° |
| 2026-04-20 19:45 | 41.62042 | 95.14655 | 32274 ft | 471 kts | 194° |
| 2026-04-20 19:46 | 41.55598 | 95.13264 | 32274 ft | 471 kts | 194° |
| 2026-04-20 19:46 | 41.49119 | 95.11862 | 32273 ft | 471 kts | 194° |
| 2026-04-20 19:47 | 41.42627 | 95.10457 | 32274 ft | 471 kts | 194° |
| 2026-04-20 19:47 | 41.36145 | 95.09056 | 32274 ft | 471 kts | 194° |
| 2026-04-20 19:48 | 41.29651 | 95.07654 | 32274 ft | 472 kts | 194° |
| 2026-04-20 19:48 | 41.23177 | 95.06261 | 32274 ft | 471 kts | 194° |
| 2026-04-20 19:49 | 41.16685 | 95.04868 | 32273 ft | 471 kts | 194° |
| 2026-04-20 19:49 | 41.10238 | 95.03484 | 32273 ft | 471 kts | 194° |
| 2026-04-20 19:50 | 41.03756 | 95.02100 | 32275 ft | 467 kts | 194° |
| 2026-04-20 19:50 | 40.97344 | 95.00733 | 32276 ft | 463 kts | 194° |
| 2026-04-20 19:51 | 40.90977 | 94.99374 | 32275 ft | 460 kts | 194° |
| 2026-04-20 19:51 | 40.84649 | 94.98027 | 32274 ft | 461 kts | 194° |
| 2026-04-20 19:52 | 40.78315 | 94.96681 | 32274 ft | 461 kts | 194° |
| 2026-04-20 19:52 | 40.71943 | 94.95331 | 32274 ft | 462 kts | 194° |
| 2026-04-20 19:53 | 40.65579 | 94.93986 | 32274 ft | 463 kts | 194° |
| 2026-04-20 19:53 | 40.59203 | 94.92641 | 32274 ft | 463 kts | 194° |
| 2026-04-20 19:54 | 40.52790 | 94.91293 | 32274 ft | 464 kts | 194° |
| 2026-04-20 19:54 | 40.46378 | 94.89947 | 32274 ft | 465 kts | 194° |
| 2026-04-20 19:55 | 40.39981 | 94.88611 | 32274 ft | 465 kts | 194° |
| 2026-04-20 19:55 | 40.33585 | 94.87275 | 32274 ft | 466 kts | 194° |
| 2026-04-20 19:56 | 40.27112 | 94.86083 | 32271 ft | 465 kts | 195° |
| 2026-04-20 19:56 | 40.21066 | 94.83469 | 32274 ft | 455 kts | 211° |
| 2026-04-20 19:57 | 40.15844 | 94.78835 | 32274 ft | 450 kts | 225° |
| 2026-04-20 19:57 | 40.11801 | 94.72636 | 32274 ft | 445 kts | 239° |
| 2026-04-20 19:58 | 40.08804 | 94.65563 | 32275 ft | 445 kts | 243° |
| 2026-04-20 19:58 | 40.05861 | 94.58405 | 32274 ft | 445 kts | 243° |
| 2026-04-20 19:59 | 40.02937 | 94.51305 | 32274 ft | 445 kts | 243° |
| 2026-04-20 19:59 | 39.99990 | 94.44161 | 32274 ft | 445 kts | 243° |
| 2026-04-20 20:00 | 39.97045 | 94.37041 | 32275 ft | 445 kts | 243° |
| 2026-04-20 20:00 | 39.94088 | 94.29907 | 32275 ft | 445 kts | 243° |
| 2026-04-20 20:01 | 39.91154 | 94.22846 | 32274 ft | 445 kts | 243° |
| 2026-04-20 20:01 | 39.88188 | 94.15724 | 32274 ft | 445 kts | 243° |
| 2026-04-20 20:02 | 39.85190 | 94.08558 | 32274 ft | 445 kts | 243° |
| 2026-04-20 20:02 | 39.82180 | 94.01373 | 32274 ft | 445 kts | 243° |
| 2026-04-20 20:03 | 39.79204 | 93.94280 | 32274 ft | 445 kts | 243° |
| 2026-04-20 20:03 | 39.76227 | 93.87183 | 32274 ft | 445 kts | 243° |
| 2026-04-20 20:04 | 39.73240 | 93.80096 | 32274 ft | 445 kts | 243° |
| 2026-04-20 20:04 | 39.70246 | 93.73014 | 32274 ft | 445 kts | 243° |
| 2026-04-20 20:05 | 39.67274 | 93.65993 | 32274 ft | 445 kts | 243° |
| 2026-04-20 20:05 | 39.64262 | 93.58890 | 32274 ft | 445 kts | 243° |
| 2026-04-20 20:06 | 39.61251 | 93.51814 | 32274 ft | 445 kts | 243° |
| 2026-04-20 20:06 | 39.58256 | 93.44789 | 32274 ft | 445 kts | 243° |
| 2026-04-20 20:07 | 39.55251 | 93.37745 | 32274 ft | 445 kts | 243° |
| 2026-04-20 20:07 | 39.52232 | 93.30686 | 32275 ft | 445 kts | 242° |
| 2026-04-20 20:08 | 39.49217 | 93.23663 | 32274 ft | 445 kts | 242° |
| 2026-04-20 20:08 | 39.46207 | 93.16665 | 32274 ft | 445 kts | 242° |
| 2026-04-20 20:09 | 39.43174 | 93.09631 | 32273 ft | 445 kts | 242° |
| 2026-04-20 20:09 | 39.40124 | 93.02570 | 32273 ft | 448 kts | 242° |
| 2026-04-20 20:10 | 39.37060 | 92.95490 | 32272 ft | 451 kts | 242° |
| 2026-04-20 20:10 | 39.33962 | 92.88346 | 32272 ft | 454 kts | 242° |
| 2026-04-20 20:11 | 39.30843 | 92.81176 | 32274 ft | 456 kts | 242° |
| 2026-04-20 20:11 | 39.27726 | 92.74024 | 32274 ft | 456 kts | 242° |
| 2026-04-20 20:12 | 39.24601 | 92.66876 | 32274 ft | 456 kts | 242° |
| 2026-04-20 20:12 | 39.21462 | 92.59711 | 32274 ft | 456 kts | 242° |
| 2026-04-20 20:13 | 39.16765 | 92.49026 | 32274 ft | 456 kts | 242° |
| 2026-04-20 20:13 | 39.13617 | 92.41882 | 32274 ft | 456 kts | 243° |
| 2026-04-20 20:14 | 39.10795 | 92.34586 | 32275 ft | 455 kts | 247° |
| 2026-04-20 20:14 | 39.08504 | 92.26932 | 32273 ft | 454 kts | 252° |
| 2026-04-20 20:15 | 39.06803 | 92.19118 | 32274 ft | 453 kts | 258° |
| 2026-04-20 20:15 | 39.05558 | 92.11106 | 32274 ft | 453 kts | 259° |
| 2026-04-20 20:16 | 39.04362 | 92.03138 | 32274 ft | 453 kts | 259° |
| 2026-04-20 20:16 | 39.03150 | 91.95091 | 32274 ft | 453 kts | 259° |
| 2026-04-20 20:17 | 39.01948 | 91.87130 | 32274 ft | 451 kts | 259° |
| 2026-04-20 20:17 | 39.00745 | 91.79194 | 32275 ft | 450 kts | 259° |
| 2026-04-20 20:18 | 38.99534 | 91.71247 | 32274 ft | 449 kts | 259° |
| 2026-04-20 20:18 | 38.98326 | 91.63355 | 32274 ft | 448 kts | 259° |
| 2026-04-20 20:19 | 38.97122 | 91.55524 | 32275 ft | 446 kts | 259° |
| 2026-04-20 20:19 | 38.95905 | 91.47650 | 32275 ft | 445 kts | 259° |
| 2026-04-20 20:20 | 38.94696 | 91.39851 | 32276 ft | 444 kts | 259° |
| 2026-04-20 20:20 | 38.93483 | 91.32078 | 32277 ft | 442 kts | 258° |
| 2026-04-20 20:21 | 38.92269 | 91.24333 | 32274 ft | 441 kts | 258° |
| 2026-04-20 20:21 | 38.91045 | 91.16564 | 32275 ft | 440 kts | 258° |
| 2026-04-20 20:22 | 38.89820 | 91.08849 | 32272 ft | 441 kts | 258° |
| 2026-04-20 20:22 | 38.88586 | 91.01093 | 32272 ft | 443 kts | 258° |
| 2026-04-20 20:23 | 38.87412 | 90.93309 | 32273 ft | 444 kts | 261° |
| 2026-04-20 20:23 | 38.86435 | 90.85452 | 32273 ft | 445 kts | 261° |
| 2026-04-20 20:24 | 38.85446 | 90.77560 | 32274 ft | 444 kts | 261° |
| 2026-04-20 20:24 | 38.84457 | 90.69710 | 32273 ft | 445 kts | 261° |
| 2026-04-20 20:25 | 38.83459 | 90.61853 | 32273 ft | 444 kts | 261° |
| 2026-04-20 20:25 | 38.82455 | 90.53995 | 32273 ft | 445 kts | 261° |
| 2026-04-20 20:26 | 38.81440 | 90.46105 | 32274 ft | 444 kts | 261° |
| 2026-04-20 20:26 | 38.80422 | 90.38258 | 32273 ft | 444 kts | 261° |
| 2026-04-20 20:27 | 38.79406 | 90.30402 | 32275 ft | 444 kts | 260° |
| 2026-04-20 20:27 | 38.78390 | 90.22526 | 32275 ft | 444 kts | 260° |
| 2026-04-20 20:28 | 38.77365 | 90.14658 | 32273 ft | 444 kts | 260° |
| 2026-04-20 20:28 | 38.76333 | 90.06803 | 32273 ft | 444 kts | 260° |
| 2026-04-20 20:29 | 38.75295 | 89.98961 | 32274 ft | 444 kts | 260° |
| 2026-04-20 20:29 | 38.74253 | 89.91141 | 32273 ft | 445 kts | 260° |
| 2026-04-20 20:30 | 38.73204 | 89.83292 | 32273 ft | 444 kts | 260° |
| 2026-04-20 20:30 | 38.72147 | 89.75434 | 32273 ft | 445 kts | 260° |
| 2026-04-20 20:31 | 38.71089 | 89.67609 | 32273 ft | 445 kts | 260° |
| 2026-04-20 20:31 | 38.70026 | 89.59792 | 32273 ft | 445 kts | 260° |
| 2026-04-20 20:32 | 38.68959 | 89.51975 | 32273 ft | 444 kts | 260° |
| 2026-04-20 20:32 | 38.67881 | 89.44121 | 32274 ft | 445 kts | 260° |
| 2026-04-20 20:33 | 38.66799 | 89.36285 | 32273 ft | 444 kts | 260° |
| 2026-04-20 20:33 | 38.65708 | 89.28432 | 32275 ft | 445 kts | 259° |
| 2026-04-20 20:34 | 38.64623 | 89.20657 | 32273 ft | 445 kts | 259° |
| 2026-04-20 20:34 | 38.63518 | 89.12778 | 32274 ft | 445 kts | 259° |
| 2026-04-20 20:35 | 38.62422 | 89.04997 | 32274 ft | 445 kts | 259° |
| 2026-04-20 20:35 | 38.61313 | 88.97173 | 32273 ft | 445 kts | 259° |
| 2026-04-20 20:36 | 38.60199 | 88.89368 | 32273 ft | 446 kts | 260° |
| 2026-04-20 20:36 | 38.59073 | 88.81525 | 32273 ft | 447 kts | 260° |
| 2026-04-20 20:37 | 38.57943 | 88.73680 | 32274 ft | 447 kts | 260° |
| 2026-04-20 20:37 | 38.57063 | 88.65804 | 32273 ft | 447 kts | 263° |
| 2026-04-20 20:38 | 38.56305 | 88.57889 | 32274 ft | 447 kts | 263° |
| 2026-04-20 20:38 | 38.55541 | 88.49980 | 32274 ft | 447 kts | 263° |
| 2026-04-20 20:39 | 38.54774 | 88.42084 | 32274 ft | 447 kts | 263° |
| 2026-04-20 20:39 | 38.53997 | 88.34165 | 32275 ft | 447 kts | 263° |
| 2026-04-20 20:40 | 38.53213 | 88.26260 | 32275 ft | 447 kts | 263° |
| 2026-04-20 20:40 | 38.52430 | 88.18375 | 32274 ft | 447 kts | 263° |
| 2026-04-20 20:41 | 38.51635 | 88.10453 | 32274 ft | 447 kts | 263° |
| 2026-04-20 20:41 | 38.50838 | 88.02562 | 32274 ft | 447 kts | 263° |
| 2026-04-20 20:42 | 38.50032 | 87.94634 | 32274 ft | 447 kts | 263° |
| 2026-04-20 20:42 | 38.49223 | 87.86726 | 32274 ft | 447 kts | 263° |
| 2026-04-20 20:43 | 38.48410 | 87.78842 | 32274 ft | 447 kts | 263° |
| 2026-04-20 20:43 | 38.47595 | 87.70976 | 32273 ft | 447 kts | 263° |
| 2026-04-20 20:44 | 38.46772 | 87.63099 | 32274 ft | 447 kts | 263° |
| 2026-04-20 20:44 | 38.45941 | 87.55213 | 32274 ft | 447 kts | 263° |
| 2026-04-20 20:45 | 38.45103 | 87.47288 | 32273 ft | 447 kts | 263° |
| 2026-04-20 20:45 | 38.44267 | 87.39460 | 32275 ft | 447 kts | 263° |
| 2026-04-20 20:46 | 38.43417 | 87.31553 | 32276 ft | 446 kts | 262° |
| 2026-04-20 20:46 | 38.42566 | 87.23672 | 32274 ft | 446 kts | 262° |
| 2026-04-20 20:47 | 38.41717 | 87.15856 | 32273 ft | 447 kts | 262° |
| 2026-04-20 20:47 | 38.40857 | 87.07972 | 32274 ft | 447 kts | 262° |
| 2026-04-20 20:48 | 38.39991 | 87.00113 | 32273 ft | 447 kts | 262° |
| 2026-04-20 20:48 | 38.39117 | 86.92224 | 32274 ft | 448 kts | 263° |
| 2026-04-20 20:49 | 38.38237 | 86.84322 | 32273 ft | 449 kts | 263° |
| 2026-04-20 20:49 | 38.37353 | 86.76426 | 32274 ft | 449 kts | 263° |
| 2026-04-20 20:50 | 38.36462 | 86.68519 | 32274 ft | 449 kts | 263° |
| 2026-04-20 20:50 | 38.35563 | 86.60597 | 32274 ft | 449 kts | 263° |
| 2026-04-20 20:51 | 38.34661 | 86.52697 | 32274 ft | 449 kts | 263° |
| 2026-04-20 20:51 | 38.33752 | 86.44796 | 32274 ft | 449 kts | 263° |
| 2026-04-20 20:52 | 38.32841 | 86.36917 | 32274 ft | 449 kts | 263° |
| 2026-04-20 20:52 | 38.31922 | 86.29020 | 32275 ft | 449 kts | 262° |
| 2026-04-20 20:53 | 38.30995 | 86.21117 | 32274 ft | 450 kts | 262° |
| 2026-04-20 20:53 | 38.30066 | 86.13225 | 32274 ft | 449 kts | 262° |
| 2026-04-20 20:54 | 38.29131 | 86.05334 | 32274 ft | 449 kts | 262° |
| 2026-04-20 20:54 | 38.28189 | 85.97433 | 32274 ft | 449 kts | 262° |
| 2026-04-20 20:55 | 38.27241 | 85.89533 | 32274 ft | 449 kts | 262° |
| 2026-04-20 20:55 | 38.26288 | 85.81642 | 32274 ft | 449 kts | 262° |
| 2026-04-20 20:56 | 38.25329 | 85.73750 | 32274 ft | 449 kts | 262° |
| 2026-04-20 20:56 | 38.24359 | 85.65825 | 32274 ft | 449 kts | 262° |
| 2026-04-20 20:57 | 38.23391 | 85.57962 | 32274 ft | 450 kts | 262° |
| 2026-04-20 20:57 | 38.22303 | 85.50111 | 32274 ft | 450 kts | 259° |
| 2026-04-20 20:58 | 38.20672 | 85.42400 | 32274 ft | 451 kts | 254° |
| 2026-04-20 20:58 | 38.18443 | 85.34861 | 32274 ft | 452 kts | 248° |
| 2026-04-20 20:59 | 38.15919 | 85.27523 | 32275 ft | 452 kts | 248° |
| 2026-04-20 20:59 | 38.13385 | 85.20182 | 32274 ft | 452 kts | 248° |
| 2026-04-20 21:00 | 38.10858 | 85.12875 | 32273 ft | 453 kts | 248° |
| 2026-04-20 21:00 | 38.08286 | 85.05473 | 32273 ft | 454 kts | 248° |
| 2026-04-20 21:01 | 38.05722 | 84.98112 | 32273 ft | 456 kts | 248° |
| 2026-04-20 21:01 | 38.03205 | 84.90679 | 32274 ft | 456 kts | 251° |
| 2026-04-20 21:02 | 38.01185 | 84.83073 | 32274 ft | 455 kts | 256° |
| 2026-04-20 21:02 | 37.99692 | 84.75241 | 32274 ft | 454 kts | 259° |
| 2026-04-20 21:03 | 37.98321 | 84.67371 | 32274 ft | 454 kts | 259° |
| 2026-04-20 21:03 | 37.96956 | 84.59566 | 32274 ft | 454 kts | 259° |
| 2026-04-20 21:04 | 37.95582 | 84.51739 | 32274 ft | 454 kts | 259° |
| 2026-04-20 21:04 | 37.94204 | 84.43917 | 32275 ft | 454 kts | 259° |
| 2026-04-20 21:05 | 37.92816 | 84.36088 | 32275 ft | 454 kts | 259° |
| 2026-04-20 21:05 | 37.91424 | 84.28262 | 32275 ft | 454 kts | 258° |
| 2026-04-20 21:06 | 37.90020 | 84.20422 | 32274 ft | 454 kts | 258° |
| 2026-04-20 21:06 | 37.88611 | 84.12556 | 32274 ft | 454 kts | 258° |
| 2026-04-20 21:07 | 37.87202 | 84.04747 | 32274 ft | 454 kts | 258° |
| 2026-04-20 21:07 | 37.85782 | 83.96904 | 32274 ft | 454 kts | 258° |
| 2026-04-20 21:08 | 37.84366 | 83.89105 | 32274 ft | 454 kts | 258° |
| 2026-04-20 21:08 | 37.82938 | 83.81271 | 32273 ft | 454 kts | 258° |
| 2026-04-20 21:09 | 37.81515 | 83.73497 | 32274 ft | 454 kts | 258° |
| 2026-04-20 21:09 | 37.80080 | 83.65689 | 32274 ft | 454 kts | 258° |
| 2026-04-20 21:10 | 37.78637 | 83.57863 | 32273 ft | 454 kts | 258° |
| 2026-04-20 21:10 | 37.77200 | 83.50109 | 32273 ft | 454 kts | 258° |
| 2026-04-20 21:11 | 37.75738 | 83.42269 | 32273 ft | 454 kts | 258° |
| 2026-04-20 21:11 | 37.74284 | 83.34472 | 32274 ft | 454 kts | 258° |
| 2026-04-20 21:12 | 37.72838 | 83.26681 | 32272 ft | 454 kts | 258° |
| 2026-04-20 21:12 | 37.71448 | 83.19235 | 32263 ft | 455 kts | 258° |
| 2026-04-20 21:13 | 37.69982 | 83.11437 | 32247 ft | 455 kts | 258° |
| 2026-04-20 21:13 | 37.68508 | 83.03621 | 32228 ft | 455 kts | 258° |
| 2026-04-20 21:14 | 37.67028 | 82.95820 | 32218 ft | 456 kts | 258° |
| 2026-04-20 21:14 | 37.65538 | 82.88004 | 32218 ft | 458 kts | 258° |
| 2026-04-20 21:15 | 37.64029 | 82.80119 | 32218 ft | 460 kts | 258° |
| 2026-04-20 21:15 | 37.62511 | 82.72207 | 32218 ft | 461 kts | 258° |
| 2026-04-20 21:16 | 37.60988 | 82.64304 | 32220 ft | 461 kts | 258° |
| 2026-04-20 21:16 | 37.59467 | 82.56441 | 32218 ft | 460 kts | 258° |
| 2026-04-20 21:17 | 37.57940 | 82.48591 | 32220 ft | 461 kts | 258° |
| 2026-04-20 21:17 | 37.56403 | 82.40721 | 32220 ft | 461 kts | 258° |
| 2026-04-20 21:18 | 37.54850 | 82.32797 | 32220 ft | 461 kts | 258° |
| 2026-04-20 21:18 | 37.53307 | 82.24942 | 32220 ft | 461 kts | 258° |
| 2026-04-20 21:19 | 37.51755 | 82.17076 | 32219 ft | 461 kts | 258° |
| 2026-04-20 21:20 | 37.49414 | 82.05260 | 32218 ft | 461 kts | 258° |
| 2026-04-20 21:20 | 37.47851 | 81.97406 | 32219 ft | 461 kts | 258° |
| 2026-04-20 21:21 | 37.46284 | 81.89555 | 32219 ft | 461 kts | 257° |
| 2026-04-20 21:21 | 37.44707 | 81.81690 | 32220 ft | 461 kts | 258° |
| 2026-04-20 21:22 | 37.43126 | 81.73830 | 32219 ft | 461 kts | 258° |
| 2026-04-20 21:22 | 37.41540 | 81.65981 | 32219 ft | 461 kts | 258° |
| 2026-04-20 21:23 | 37.39955 | 81.58164 | 32219 ft | 461 kts | 258° |
| 2026-04-20 21:23 | 37.38357 | 81.50313 | 32219 ft | 461 kts | 258° |
| 2026-04-20 21:24 | 37.36755 | 81.42474 | 32220 ft | 461 kts | 258° |
| 2026-04-20 21:24 | 37.35142 | 81.34617 | 32220 ft | 461 kts | 257° |
| 2026-04-20 21:25 | 37.33529 | 81.26783 | 32221 ft | 461 kts | 257° |
| 2026-04-20 21:25 | 37.31903 | 81.18905 | 32220 ft | 461 kts | 257° |
| 2026-04-20 21:26 | 37.30294 | 81.11139 | 32220 ft | 461 kts | 257° |
| 2026-04-20 21:26 | 37.28658 | 81.03273 | 32218 ft | 463 kts | 257° |
| 2026-04-20 21:27 | 37.27014 | 80.95398 | 32218 ft | 465 kts | 257° |
| 2026-04-20 21:27 | 37.25358 | 80.87515 | 32219 ft | 468 kts | 257° |
| 2026-04-20 21:28 | 37.23682 | 80.79581 | 32219 ft | 468 kts | 257° |
| 2026-04-20 21:28 | 37.22008 | 80.71658 | 32220 ft | 468 kts | 257° |
| 2026-04-20 21:29 | 37.20331 | 80.63751 | 32221 ft | 468 kts | 257° |
| 2026-04-20 21:29 | 37.18644 | 80.55823 | 32220 ft | 468 kts | 257° |
| 2026-04-20 21:30 | 37.16968 | 80.47960 | 32219 ft | 468 kts | 257° |
| 2026-04-20 21:30 | 37.15272 | 80.40036 | 32220 ft | 468 kts | 257° |
| 2026-04-20 21:31 | 37.13565 | 80.32090 | 32221 ft | 469 kts | 256° |
| 2026-04-20 21:31 | 37.11859 | 80.24193 | 32220 ft | 468 kts | 257° |
| 2026-04-20 21:32 | 37.10155 | 80.16329 | 32220 ft | 467 kts | 256° |
| 2026-04-20 21:32 | 37.08438 | 80.08443 | 32218 ft | 466 kts | 256° |
| 2026-04-20 21:33 | 37.06726 | 80.00613 | 32220 ft | 464 kts | 256° |
| 2026-04-20 21:33 | 37.05138 | 79.92783 | 32220 ft | 462 kts | 259° |
| 2026-04-20 21:34 | 37.04116 | 79.84879 | 32220 ft | 459 kts | 264° |
| 2026-04-20 21:34 | 37.03695 | 79.76887 | 32220 ft | 459 kts | 270° |
| 2026-04-20 21:35 | 37.03651 | 79.68893 | 32219 ft | 458 kts | 270° |
| 2026-04-20 21:35 | 37.03622 | 79.60871 | 32217 ft | 458 kts | 271° |
| 2026-04-20 21:36 | 37.03584 | 79.52888 | 32218 ft | 458 kts | 270° |
| 2026-04-20 21:36 | 37.03537 | 79.44861 | 32219 ft | 458 kts | 270° |
| 2026-04-20 21:37 | 37.03488 | 79.36917 | 32218 ft | 458 kts | 271° |
| 2026-04-20 21:37 | 37.03431 | 79.28884 | 32220 ft | 458 kts | 270° |
| 2026-04-20 21:38 | 37.03368 | 79.20874 | 32219 ft | 458 kts | 270° |
| 2026-04-20 21:38 | 37.03299 | 79.12856 | 32218 ft | 458 kts | 270° |
| 2026-04-20 21:39 | 37.03223 | 79.04831 | 32218 ft | 459 kts | 270° |
| 2026-04-20 21:39 | 37.03145 | 78.96835 | 32217 ft | 461 kts | 270° |
| 2026-04-20 21:40 | 37.03061 | 78.88757 | 32217 ft | 462 kts | 270° |
| 2026-04-20 21:40 | 37.02972 | 78.80714 | 32216 ft | 462 kts | 271° |
| 2026-04-20 21:41 | 37.02881 | 78.72628 | 32219 ft | 461 kts | 271° |
| 2026-04-20 21:41 | 37.02785 | 78.64602 | 32222 ft | 461 kts | 270° |
| 2026-04-20 21:42 | 37.02678 | 78.56559 | 32219 ft | 462 kts | 270° |
| 2026-04-20 21:42 | 37.02564 | 78.48447 | 32217 ft | 461 kts | 270° |
| 2026-04-20 21:43 | 37.02450 | 78.40426 | 32219 ft | 461 kts | 270° |
| 2026-04-20 21:43 | 37.02325 | 78.32318 | 32221 ft | 461 kts | 270° |
| 2026-04-20 21:44 | 37.02197 | 78.24250 | 32220 ft | 462 kts | 270° |
| 2026-04-20 21:44 | 37.02062 | 78.16203 | 32216 ft | 461 kts | 270° |
| 2026-04-20 21:45 | 37.01923 | 78.08175 | 32218 ft | 461 kts | 270° |
| 2026-04-20 21:45 | 37.01778 | 78.00072 | 32219 ft | 461 kts | 270° |
| 2026-04-20 21:46 | 37.01629 | 77.92041 | 32220 ft | 460 kts | 270° |
| 2026-04-20 21:46 | 37.01477 | 77.84036 | 32219 ft | 460 kts | 270° |
| 2026-04-20 21:47 | 37.01318 | 77.75991 | 32221 ft | 460 kts | 270° |
| 2026-04-20 21:47 | 37.01150 | 77.67882 | 32221 ft | 460 kts | 270° |
| 2026-04-20 21:48 | 37.00980 | 77.59849 | 32218 ft | 461 kts | 270° |
| 2026-04-20 21:48 | 37.00805 | 77.51849 | 32215 ft | 459 kts | 270° |
| 2026-04-20 21:49 | 37.00623 | 77.43815 | 32221 ft | 460 kts | 270° |
| 2026-04-20 21:49 | 37.00440 | 77.35795 | 32220 ft | 460 kts | 270° |
| 2026-04-20 21:50 | 37.00245 | 77.27718 | 32218 ft | 460 kts | 269° |
| 2026-04-20 21:50 | 37.00045 | 77.19691 | 32217 ft | 459 kts | 269° |
| 2026-04-20 21:51 | 36.99840 | 77.11621 | 32218 ft | 460 kts | 269° |
| 2026-04-20 21:51 | 36.99632 | 77.03624 | 32220 ft | 460 kts | 269° |
| 2026-04-20 21:52 | 36.99420 | 76.95587 | 32218 ft | 459 kts | 269° |
| 2026-04-20 21:52 | 36.99200 | 76.87517 | 32220 ft | 460 kts | 269° |
| 2026-04-20 21:53 | 36.98977 | 76.79490 | 32219 ft | 460 kts | 269° |
| 2026-04-20 21:53 | 36.98745 | 76.71463 | 32219 ft | 460 kts | 269° |
| 2026-04-20 21:54 | 36.98506 | 76.63443 | 32220 ft | 460 kts | 269° |
| 2026-04-20 21:54 | 36.98265 | 76.55436 | 32221 ft | 460 kts | 269° |
| 2026-04-20 21:55 | 36.98016 | 76.47375 | 32218 ft | 460 kts | 269° |
| 2026-04-20 21:55 | 36.97765 | 76.39337 | 32218 ft | 460 kts | 269° |
| 2026-04-20 21:56 | 36.97506 | 76.31303 | 32222 ft | 460 kts | 269° |
| 2026-04-20 21:56 | 36.97242 | 76.23256 | 32219 ft | 459 kts | 268° |
| 2026-04-20 21:57 | 36.96974 | 76.15272 | 32218 ft | 459 kts | 269° |
| 2026-04-20 21:57 | 36.96699 | 76.07237 | 32219 ft | 459 kts | 269° |
| 2026-04-20 21:58 | 36.96417 | 75.99159 | 32218 ft | 459 kts | 269° |
| 2026-04-20 21:58 | 36.96133 | 75.91183 | 32219 ft | 459 kts | 269° |
| 2026-04-20 21:59 | 36.95840 | 75.83118 | 32219 ft | 459 kts | 268° |
| 2026-04-20 21:59 | 36.95541 | 75.75082 | 32220 ft | 459 kts | 269° |
| 2026-04-20 22:00 | 36.95237 | 75.67075 | 32220 ft | 459 kts | 268° |
| 2026-04-20 22:00 | 36.94927 | 75.59097 | 32219 ft | 459 kts | 269° |
| 2026-04-20 22:01 | 36.94352 | 75.51095 | 32219 ft | 460 kts | 261° |
| 2026-04-20 22:01 | 36.92431 | 75.43404 | 32219 ft | 464 kts | 248° |
| 2026-04-20 22:02 | 36.89092 | 75.36378 | 32219 ft | 469 kts | 235° |
| 2026-04-20 22:02 | 36.84503 | 75.30439 | 32222 ft | 474 kts | 224° |
| 2026-04-20 22:03 | 36.79499 | 75.25099 | 32220 ft | 474 kts | 223° |
| 2026-04-20 22:03 | 36.74419 | 75.19724 | 32219 ft | 474 kts | 223° |
| 2026-04-20 22:04 | 36.69378 | 75.14383 | 32220 ft | 474 kts | 223° |
| 2026-04-20 22:04 | 36.64300 | 75.09004 | 32220 ft | 474 kts | 223° |
| 2026-04-20 22:05 | 36.59254 | 75.03667 | 32221 ft | 473 kts | 223° |
| 2026-04-20 22:05 | 36.54196 | 74.98325 | 32219 ft | 472 kts | 223° |
| 2026-04-20 22:06 | 36.49181 | 74.93033 | 32221 ft | 471 kts | 223° |
| 2026-04-20 22:06 | 36.44154 | 74.87742 | 32219 ft | 469 kts | 223° |
| 2026-04-20 22:07 | 36.39127 | 74.82460 | 32215 ft | 469 kts | 223° |
| 2026-04-20 22:07 | 36.34129 | 74.77219 | 32199 ft | 469 kts | 223° |
| 2026-04-20 22:08 | 36.29109 | 74.71967 | 32155 ft | 469 kts | 223° |
| 2026-04-20 22:08 | 36.24054 | 74.66682 | 32089 ft | 470 kts | 223° |
| 2026-04-20 22:09 | 36.19035 | 74.61446 | 32025 ft | 471 kts | 223° |
| 2026-04-20 22:09 | 36.13973 | 74.56179 | 31984 ft | 471 kts | 223° |
| 2026-04-20 22:10 | 36.08912 | 74.50920 | 31964 ft | 471 kts | 223° |
| 2026-04-20 22:10 | 36.03836 | 74.45663 | 31954 ft | 472 kts | 223° |
| 2026-04-20 22:11 | 35.98784 | 74.40436 | 31950 ft | 471 kts | 223° |
| 2026-04-20 22:11 | 35.93835 | 74.35107 | 31949 ft | 469 kts | 226° |
| 2026-04-20 22:12 | 35.89285 | 74.29225 | 31947 ft | 468 kts | 232° |
| 2026-04-20 22:12 | 35.85146 | 74.23013 | 31947 ft | 467 kts | 233° |
| 2026-04-20 22:13 | 35.80986 | 74.16735 | 31948 ft | 467 kts | 233° |
| 2026-04-20 22:13 | 35.76821 | 74.10474 | 31947 ft | 467 kts | 233° |
| 2026-04-20 22:14 | 35.72683 | 74.04265 | 31947 ft | 467 kts | 233° |
| 2026-04-20 22:14 | 35.68521 | 73.98029 | 31948 ft | 468 kts | 233° |
| 2026-04-20 22:15 | 35.64353 | 73.91797 | 31946 ft | 467 kts | 233° |
| 2026-04-20 22:15 | 35.60173 | 73.85558 | 31948 ft | 468 kts | 233° |
| 2026-04-20 22:16 | 35.55992 | 73.79333 | 31949 ft | 467 kts | 233° |
| 2026-04-20 22:16 | 35.51832 | 73.73150 | 31946 ft | 467 kts | 233° |
| 2026-04-20 22:17 | 35.47650 | 73.66943 | 31949 ft | 467 kts | 233° |
| 2026-04-20 22:17 | 35.43472 | 73.60754 | 31946 ft | 468 kts | 233° |
| 2026-04-20 22:18 | 35.39270 | 73.54538 | 31949 ft | 467 kts | 233° |
| 2026-04-20 22:18 | 35.35087 | 73.48363 | 31945 ft | 467 kts | 233° |
| 2026-04-20 22:19 | 35.30923 | 73.42223 | 31948 ft | 468 kts | 233° |
| 2026-04-20 22:19 | 35.26698 | 73.36005 | 31948 ft | 468 kts | 233° |
| 2026-04-20 22:20 | 35.22501 | 73.29845 | 31949 ft | 468 kts | 232° |
| 2026-04-20 22:20 | 35.18292 | 73.23676 | 31947 ft | 468 kts | 232° |
| 2026-04-20 22:21 | 35.14090 | 73.17531 | 31946 ft | 468 kts | 232° |
| 2026-04-20 22:21 | 35.09878 | 73.11382 | 31947 ft | 468 kts | 233° |
| 2026-04-20 22:22 | 35.05654 | 73.05228 | 31947 ft | 469 kts | 233° |
| 2026-04-20 22:22 | 35.01425 | 72.99077 | 31948 ft | 469 kts | 233° |
| 2026-04-20 22:23 | 34.97182 | 72.92918 | 31948 ft | 467 kts | 234° |
| 2026-04-20 22:23 | 34.92980 | 72.86828 | 31948 ft | 464 kts | 234° |
| 2026-04-20 22:24 | 34.88800 | 72.80766 | 31948 ft | 460 kts | 234° |
| 2026-04-20 22:24 | 34.84639 | 72.74732 | 31947 ft | 458 kts | 234° |
| 2026-04-20 22:25 | 34.80496 | 72.68747 | 31948 ft | 459 kts | 234° |
| 2026-04-20 22:25 | 34.76346 | 72.62766 | 31948 ft | 458 kts | 234° |
| 2026-04-20 22:26 | 34.72202 | 72.56808 | 31953 ft | 458 kts | 234° |
| 2026-04-20 22:26 | 34.68054 | 72.50857 | 31957 ft | 460 kts | 234° |
| 2026-04-20 22:27 | 34.61805 | 72.41908 | 31962 ft | 459 kts | 234° |
| 2026-04-20 22:27 | 34.57634 | 72.35952 | 31963 ft | 459 kts | 234° |
| 2026-04-20 22:28 | 34.53453 | 72.29988 | 31964 ft | 460 kts | 234° |
| 2026-04-20 22:28 | 34.49288 | 72.24056 | 31967 ft | 458 kts | 234° |
| 2026-04-20 22:29 | 34.45121 | 72.18135 | 31969 ft | 459 kts | 234° |
| 2026-04-20 22:29 | 34.40943 | 72.12206 | 31973 ft | 459 kts | 234° |
| 2026-04-20 22:30 | 34.36754 | 72.06274 | 31973 ft | 459 kts | 234° |
| 2026-04-20 22:30 | 34.32552 | 72.00333 | 31973 ft | 460 kts | 234° |
| 2026-04-20 22:31 | 34.28347 | 71.94399 | 31973 ft | 459 kts | 234° |
| 2026-04-20 22:31 | 34.24176 | 71.88522 | 31974 ft | 460 kts | 234° |
| 2026-04-20 22:32 | 34.19990 | 71.82632 | 31973 ft | 460 kts | 234° |
| 2026-04-20 22:32 | 34.15763 | 71.76700 | 31973 ft | 459 kts | 234° |
| 2026-04-20 22:33 | 34.11563 | 71.70817 | 31973 ft | 459 kts | 234° |
| 2026-04-20 22:33 | 34.07348 | 71.64921 | 31975 ft | 460 kts | 234° |
| 2026-04-20 22:34 | 34.03131 | 71.59038 | 31973 ft | 459 kts | 234° |
| 2026-04-20 22:34 | 33.98882 | 71.53243 | 31975 ft | 461 kts | 231° |
| 2026-04-20 22:35 | 33.94192 | 71.47835 | 31974 ft | 464 kts | 226° |
| 2026-04-20 22:35 | 33.89264 | 71.42684 | 31973 ft | 464 kts | 226° |
| 2026-04-20 22:36 | 33.84324 | 71.37536 | 31975 ft | 464 kts | 226° |
| 2026-04-20 22:36 | 33.79380 | 71.32391 | 31975 ft | 465 kts | 225° |
| 2026-04-20 22:37 | 33.74437 | 71.27254 | 31975 ft | 466 kts | 225° |
| 2026-04-20 22:37 | 33.69509 | 71.22138 | 31973 ft | 465 kts | 226° |
| 2026-04-20 22:38 | 33.64579 | 71.17032 | 31974 ft | 465 kts | 226° |
| 2026-04-20 22:38 | 33.59645 | 71.11936 | 31974 ft | 466 kts | 226° |
| 2026-04-20 22:39 | 33.54693 | 71.06827 | 31973 ft | 465 kts | 225° |
| 2026-04-20 22:39 | 33.49670 | 71.01799 | 31974 ft | 467 kts | 223° |
| 2026-04-20 22:40 | 33.44286 | 70.97301 | 31975 ft | 472 kts | 217° |
| 2026-04-20 22:40 | 33.38683 | 70.93109 | 31975 ft | 472 kts | 217° |
| 2026-04-20 22:41 | 33.33084 | 70.88933 | 31974 ft | 472 kts | 218° |
| 2026-04-20 22:41 | 33.27462 | 70.84744 | 31975 ft | 473 kts | 218° |
| 2026-04-20 22:42 | 33.21846 | 70.80566 | 31973 ft | 474 kts | 218° |
| 2026-04-20 22:42 | 33.16245 | 70.76408 | 31974 ft | 474 kts | 218° |
| 2026-04-20 22:43 | 33.10577 | 70.72205 | 31975 ft | 473 kts | 218° |
| 2026-04-20 22:43 | 33.04981 | 70.68069 | 31975 ft | 470 kts | 218° |
| 2026-04-20 22:44 | 32.99396 | 70.63948 | 31976 ft | 467 kts | 218° |
| 2026-04-20 22:44 | 32.93832 | 70.59843 | 31976 ft | 464 kts | 218° |
| 2026-04-20 22:45 | 32.88377 | 70.55686 | 31974 ft | 462 kts | 219° |
| 2026-04-20 22:45 | 32.82982 | 70.51529 | 31974 ft | 462 kts | 219° |
| 2026-04-20 22:46 | 32.77549 | 70.47370 | 31974 ft | 462 kts | 219° |
| 2026-04-20 22:46 | 32.72105 | 70.43222 | 31974 ft | 462 kts | 219° |
| 2026-04-20 22:47 | 32.66660 | 70.39078 | 31974 ft | 462 kts | 219° |
| 2026-04-20 22:47 | 32.61137 | 70.35045 | 31974 ft | 464 kts | 217° |
| 2026-04-20 22:48 | 32.55516 | 70.31115 | 31976 ft | 465 kts | 217° |
| 2026-04-20 22:48 | 32.49909 | 70.27212 | 31974 ft | 465 kts | 216° |
| 2026-04-20 22:49 | 32.44310 | 70.23328 | 31974 ft | 465 kts | 216° |
| 2026-04-20 22:49 | 32.38690 | 70.19434 | 31974 ft | 465 kts | 216° |
| 2026-04-20 22:50 | 32.33093 | 70.15464 | 31974 ft | 464 kts | 218° |
| 2026-04-20 22:50 | 32.27559 | 70.11441 | 31974 ft | 463 kts | 218° |
| 2026-04-20 22:51 | 32.22055 | 70.07458 | 31974 ft | 464 kts | 217° |
| 2026-04-20 22:51 | 32.16529 | 70.03477 | 31974 ft | 464 kts | 217° |
| 2026-04-20 22:52 | 32.10946 | 69.99467 | 31971 ft | 464 kts | 217° |
| 2026-04-20 22:52 | 32.05432 | 69.95512 | 31953 ft | 464 kts | 217° |
| 2026-04-20 22:53 | 31.99898 | 69.91550 | 31924 ft | 464 kts | 217° |
| 2026-04-20 22:53 | 31.94302 | 69.87549 | 31895 ft | 464 kts | 217° |
| 2026-04-20 22:54 | 31.88757 | 69.83591 | 31878 ft | 465 kts | 217° |
| 2026-04-20 22:54 | 31.83172 | 69.79610 | 31870 ft | 465 kts | 217° |
| 2026-04-20 22:55 | 31.77608 | 69.75651 | 31867 ft | 465 kts | 217° |
| 2026-04-20 22:55 | 31.72049 | 69.71700 | 31866 ft | 465 kts | 217° |
| 2026-04-20 22:56 | 31.66471 | 69.67742 | 31866 ft | 465 kts | 217° |
| 2026-04-20 22:56 | 31.60940 | 69.63824 | 31866 ft | 465 kts | 217° |
| 2026-04-20 22:57 | 31.55349 | 69.59872 | 31866 ft | 465 kts | 217° |
| 2026-04-20 22:57 | 31.49789 | 69.55951 | 31866 ft | 465 kts | 217° |
| 2026-04-20 22:58 | 31.44267 | 69.52058 | 31866 ft | 465 kts | 217° |
| 2026-04-20 22:58 | 31.38877 | 69.47871 | 31866 ft | 460 kts | 223° |
| 2026-04-20 22:59 | 31.33892 | 69.43140 | 31866 ft | 456 kts | 227° |
| 2026-04-20 22:59 | 31.29361 | 69.37933 | 31866 ft | 452 kts | 233° |
| 2026-04-20 23:00 | 31.25112 | 69.32522 | 31869 ft | 452 kts | 232° |
| 2026-04-20 23:00 | 31.20838 | 69.27088 | 31867 ft | 452 kts | 232° |
| 2026-04-20 23:01 | 31.16580 | 69.21681 | 31866 ft | 452 kts | 232° |
| 2026-04-20 23:01 | 31.12298 | 69.16251 | 31866 ft | 452 kts | 232° |
| 2026-04-20 23:02 | 31.08004 | 69.10812 | 31866 ft | 452 kts | 232° |
| 2026-04-20 23:02 | 31.03733 | 69.05410 | 31866 ft | 452 kts | 232° |
| 2026-04-20 23:03 | 30.99439 | 68.99989 | 31866 ft | 453 kts | 233° |
| 2026-04-20 23:03 | 30.95133 | 68.94562 | 31866 ft | 454 kts | 233° |
| 2026-04-20 23:04 | 30.90811 | 68.89120 | 31866 ft | 456 kts | 233° |
| 2026-04-20 23:04 | 30.86455 | 68.83641 | 31865 ft | 459 kts | 233° |
| 2026-04-20 23:05 | 30.82078 | 68.78142 | 31865 ft | 459 kts | 233° |
| 2026-04-20 23:05 | 30.77722 | 68.72680 | 31866 ft | 459 kts | 233° |
| 2026-04-20 23:06 | 30.73367 | 68.67227 | 31866 ft | 459 kts | 233° |
| 2026-04-20 23:06 | 30.68976 | 68.61738 | 31865 ft | 459 kts | 233° |
| 2026-04-20 23:07 | 30.64617 | 68.56297 | 31865 ft | 459 kts | 233° |
| 2026-04-20 23:07 | 30.60243 | 68.50843 | 31865 ft | 459 kts | 233° |
| 2026-04-20 23:08 | 30.55866 | 68.45396 | 31865 ft | 459 kts | 233° |
| 2026-04-20 23:08 | 30.51492 | 68.39960 | 31867 ft | 459 kts | 233° |
| 2026-04-20 23:09 | 30.47104 | 68.34516 | 31867 ft | 459 kts | 233° |
| 2026-04-20 23:09 | 30.42723 | 68.29089 | 31868 ft | 460 kts | 233° |
| 2026-04-20 23:10 | 30.38315 | 68.23638 | 31866 ft | 460 kts | 233° |
| 2026-04-20 23:10 | 30.33933 | 68.18229 | 31867 ft | 459 kts | 233° |
| 2026-04-20 23:11 | 30.29511 | 68.12783 | 31865 ft | 460 kts | 233° |
| 2026-04-20 23:11 | 30.25100 | 68.07343 | 31867 ft | 460 kts | 233° |
| 2026-04-20 23:12 | 30.20728 | 68.01947 | 31866 ft | 460 kts | 233° |
| 2026-04-20 23:12 | 30.16327 | 67.96538 | 31867 ft | 459 kts | 233° |
| 2026-04-20 23:13 | 30.11939 | 67.91160 | 31865 ft | 460 kts | 233° |
| 2026-04-20 23:13 | 30.07529 | 67.85741 | 31866 ft | 459 kts | 233° |
| 2026-04-20 23:14 | 30.03167 | 67.80317 | 31866 ft | 459 kts | 233° |
| 2026-04-20 23:14 | 29.98794 | 67.74892 | 31866 ft | 460 kts | 233° |
| 2026-04-20 23:15 | 29.94423 | 67.69492 | 31867 ft | 460 kts | 233° |
| 2026-04-20 23:15 | 29.90029 | 67.64074 | 31866 ft | 460 kts | 233° |
| 2026-04-20 23:16 | 29.85618 | 67.58647 | 31864 ft | 460 kts | 233° |
| 2026-04-20 23:16 | 29.81221 | 67.53249 | 31866 ft | 460 kts | 233° |
| 2026-04-20 23:17 | 29.76827 | 67.47865 | 31865 ft | 460 kts | 233° |
| 2026-04-20 23:17 | 29.72438 | 67.42473 | 31866 ft | 459 kts | 233° |
| 2026-04-20 23:18 | 29.68045 | 67.37043 | 31866 ft | 459 kts | 233° |
| 2026-04-20 23:18 | 29.63687 | 67.31673 | 31867 ft | 459 kts | 233° |
| 2026-04-20 23:19 | 29.59281 | 67.26260 | 31865 ft | 460 kts | 233° |
| 2026-04-20 23:19 | 29.54886 | 67.20872 | 31867 ft | 460 kts | 233° |
| 2026-04-20 23:20 | 29.50489 | 67.15488 | 31867 ft | 459 kts | 233° |
| 2026-04-20 23:20 | 29.46112 | 67.10139 | 31867 ft | 457 kts | 232° |
| 2026-04-20 23:21 | 29.41760 | 67.04828 | 31867 ft | 455 kts | 232° |
| 2026-04-20 23:21 | 29.37420 | 66.99537 | 31869 ft | 453 kts | 232° |
| 2026-04-20 23:22 | 29.33087 | 66.94264 | 31879 ft | 451 kts | 232° |
| 2026-04-20 23:22 | 29.28754 | 66.89001 | 31892 ft | 451 kts | 232° |
| 2026-04-20 23:23 | 29.24440 | 66.83768 | 31906 ft | 450 kts | 232° |
| 2026-04-20 23:23 | 29.20101 | 66.78515 | 31912 ft | 451 kts | 232° |
| 2026-04-20 23:24 | 29.15780 | 66.73293 | 31918 ft | 451 kts | 232° |
| 2026-04-20 23:24 | 29.11446 | 66.68050 | 31918 ft | 450 kts | 233° |
| 2026-04-20 23:25 | 29.07816 | 66.62307 | 31920 ft | 441 kts | 245° |
| 2026-04-20 23:25 | 29.05411 | 66.55861 | 31919 ft | 436 kts | 256° |
| 2026-04-20 23:26 | 29.04296 | 66.49047 | 31919 ft | 434 kts | 267° |
| 2026-04-20 23:26 | 29.04384 | 66.42139 | 31920 ft | 433 kts | 274° |
| 2026-04-20 23:27 | 29.04765 | 66.35231 | 31920 ft | 433 kts | 274° |
| 2026-04-20 23:27 | 29.05157 | 66.28302 | 31920 ft | 433 kts | 274° |
| 2026-04-20 23:28 | 29.05546 | 66.21439 | 31919 ft | 433 kts | 274° |
| 2026-04-20 23:28 | 29.05933 | 66.14531 | 31919 ft | 433 kts | 274° |
| 2026-04-20 23:29 | 29.06317 | 66.07626 | 31919 ft | 432 kts | 274° |
| 2026-04-20 23:29 | 29.06696 | 66.00724 | 31918 ft | 433 kts | 274° |
| 2026-04-20 23:30 | 29.07073 | 65.93845 | 31919 ft | 432 kts | 274° |
| 2026-04-20 23:30 | 29.07448 | 65.86922 | 31919 ft | 431 kts | 274° |
| 2026-04-20 23:31 | 29.07814 | 65.80043 | 31919 ft | 431 kts | 274° |
| 2026-04-20 23:31 | 29.08176 | 65.73183 | 31919 ft | 431 kts | 274° |
| 2026-04-20 23:32 | 29.08538 | 65.66299 | 31918 ft | 431 kts | 274° |
| 2026-04-20 23:32 | 29.08894 | 65.59444 | 31920 ft | 431 kts | 274° |
| 2026-04-20 23:33 | 29.09245 | 65.52565 | 31919 ft | 431 kts | 274° |
| 2026-04-20 23:33 | 29.09593 | 65.45698 | 31924 ft | 431 kts | 274° |
| 2026-04-20 23:34 | 29.09935 | 65.38814 | 31941 ft | 431 kts | 274° |
| 2026-04-20 23:34 | 29.10274 | 65.31916 | 31977 ft | 431 kts | 274° |
| 2026-04-20 23:35 | 29.10743 | 65.21608 | 32024 ft | 431 kts | 273° |
| 2026-04-20 23:36 | 29.10994 | 65.14754 | 32042 ft | 430 kts | 273° |
| 2026-04-20 23:36 | 29.11238 | 65.07853 | 32050 ft | 430 kts | 273° |
| 2026-04-20 23:37 | 29.11479 | 65.01016 | 32054 ft | 429 kts | 273° |
| 2026-04-20 23:37 | 29.11718 | 64.94151 | 32055 ft | 429 kts | 273° |
| 2026-04-20 23:38 | 29.11950 | 64.87337 | 32056 ft | 428 kts | 273° |
| 2026-04-20 23:38 | 29.12180 | 64.80494 | 32055 ft | 428 kts | 272° |
| 2026-04-20 23:39 | 29.12404 | 64.73653 | 32057 ft | 428 kts | 272° |
| 2026-04-20 23:39 | 29.12625 | 64.66846 | 32056 ft | 428 kts | 272° |
| 2026-04-20 23:40 | 29.12839 | 64.59985 | 32054 ft | 428 kts | 272° |
| 2026-04-20 23:40 | 29.13049 | 64.53146 | 32056 ft | 428 kts | 272° |
| 2026-04-20 23:41 | 29.13260 | 64.46296 | 32055 ft | 428 kts | 272° |
| 2026-04-20 23:41 | 29.13668 | 64.39476 | 32056 ft | 428 kts | 277° |
| 2026-04-20 23:42 | 29.14390 | 64.32655 | 32060 ft | 428 kts | 277° |
| 2026-04-20 23:42 | 29.15105 | 64.25889 | 32056 ft | 428 kts | 276° |
| 2026-04-20 23:43 | 29.15816 | 64.19086 | 32055 ft | 428 kts | 276° |
| 2026-04-20 23:43 | 29.16522 | 64.12281 | 32055 ft | 428 kts | 277° |
| 2026-04-20 23:44 | 29.17222 | 64.05531 | 32055 ft | 428 kts | 276° |
| 2026-04-20 23:44 | 29.17922 | 63.98728 | 32054 ft | 427 kts | 276° |
| 2026-04-20 23:45 | 29.18619 | 63.91926 | 32055 ft | 428 kts | 276° |
| 2026-04-20 23:45 | 29.19314 | 63.85123 | 32055 ft | 428 kts | 276° |
| 2026-04-20 23:46 | 29.19999 | 63.78374 | 32055 ft | 428 kts | 277° |
| 2026-04-20 23:46 | 29.20686 | 63.71565 | 32055 ft | 428 kts | 277° |
| 2026-04-20 23:47 | 29.21372 | 63.64759 | 32055 ft | 428 kts | 276° |
| 2026-04-20 23:47 | 29.22045 | 63.58000 | 32054 ft | 428 kts | 276° |
| 2026-04-20 23:48 | 29.22723 | 63.51182 | 32055 ft | 428 kts | 276° |
| 2026-04-20 23:48 | 29.23397 | 63.44364 | 32056 ft | 428 kts | 276° |
| 2026-04-20 23:49 | 29.24064 | 63.37569 | 32056 ft | 428 kts | 276° |
| 2026-04-20 23:49 | 29.24727 | 63.30782 | 32056 ft | 428 kts | 276° |
| 2026-04-20 23:50 | 29.25388 | 63.23984 | 32056 ft | 428 kts | 276° |
| 2026-04-20 23:50 | 29.26050 | 63.17126 | 32055 ft | 428 kts | 276° |
| 2026-04-20 23:51 | 29.26700 | 63.10369 | 32055 ft | 428 kts | 276° |
| 2026-04-20 23:51 | 29.27351 | 63.03558 | 32055 ft | 428 kts | 276° |
| 2026-04-20 23:52 | 29.27994 | 62.96794 | 32055 ft | 428 kts | 276° |
| 2026-04-20 23:52 | 29.28641 | 62.89965 | 32055 ft | 427 kts | 276° |
| 2026-04-20 23:53 | 29.29279 | 62.83190 | 32055 ft | 427 kts | 276° |
| 2026-04-20 23:53 | 29.29917 | 62.76379 | 32056 ft | 427 kts | 276° |
| 2026-04-20 23:54 | 29.30548 | 62.69608 | 32056 ft | 427 kts | 276° |
| 2026-04-20 23:54 | 29.31178 | 62.62809 | 32056 ft | 427 kts | 276° |
| 2026-04-20 23:55 | 29.31804 | 62.56006 | 32055 ft | 427 kts | 276° |
| 2026-04-20 23:55 | 29.32423 | 62.49230 | 32056 ft | 427 kts | 276° |
| 2026-04-20 23:56 | 29.33044 | 62.42422 | 32056 ft | 427 kts | 276° |
| 2026-04-20 23:56 | 29.33661 | 62.35599 | 32056 ft | 427 kts | 276° |
| 2026-04-20 23:57 | 29.34271 | 62.28812 | 32056 ft | 427 kts | 276° |
| 2026-04-20 23:57 | 29.34881 | 62.21987 | 32054 ft | 427 kts | 276° |
| 2026-04-20 23:58 | 29.35486 | 62.15197 | 32055 ft | 427 kts | 276° |
| 2026-04-20 23:58 | 29.36085 | 62.08421 | 32056 ft | 427 kts | 276° |
| 2026-04-20 23:59 | 29.36683 | 62.01603 | 32055 ft | 427 kts | 276° |
| 2026-04-20 23:59 | 29.37280 | 61.94793 | 32056 ft | 427 kts | 276° |
| 2026-04-21 00:00 | 29.37866 | 61.88017 | 32055 ft | 427 kts | 276° |
| 2026-04-21 00:00 | 29.38454 | 61.81209 | 32055 ft | 427 kts | 276° |
| 2026-04-21 00:01 | 29.39038 | 61.74387 | 32055 ft | 427 kts | 276° |
| 2026-04-21 00:01 | 29.39619 | 61.67569 | 32055 ft | 427 kts | 276° |
| 2026-04-21 00:02 | 29.40194 | 61.60773 | 32055 ft | 427 kts | 276° |
| 2026-04-21 00:02 | 29.40763 | 61.53980 | 32057 ft | 426 kts | 276° |
| 2026-04-21 00:03 | 29.41329 | 61.47181 | 32072 ft | 424 kts | 276° |
| 2026-04-21 00:03 | 29.41884 | 61.40430 | 32083 ft | 424 kts | 276° |
| 2026-04-21 00:04 | 29.42440 | 61.33631 | 32091 ft | 424 kts | 275° |
| 2026-04-21 00:04 | 29.43131 | 61.26924 | 32091 ft | 424 kts | 279° |
| 2026-04-21 00:05 | 29.44142 | 61.20232 | 32090 ft | 424 kts | 279° |
| 2026-04-21 00:05 | 29.45155 | 61.13550 | 32091 ft | 424 kts | 279° |
| 2026-04-21 00:06 | 29.46178 | 61.06832 | 32090 ft | 425 kts | 279° |
| 2026-04-21 00:06 | 29.47050 | 61.00125 | 32090 ft | 424 kts | 274° |
| 2026-04-21 00:07 | 29.47010 | 60.93354 | 32090 ft | 424 kts | 265° |
| 2026-04-21 00:07 | 29.45943 | 60.86644 | 32090 ft | 426 kts | 256° |
| 2026-04-21 00:08 | 29.43877 | 60.80252 | 32090 ft | 429 kts | 248° |
| 2026-04-21 00:08 | 29.41072 | 60.74180 | 32091 ft | 430 kts | 244° |
| 2026-04-21 00:09 | 29.38158 | 60.68105 | 32091 ft | 430 kts | 244° |
| 2026-04-21 00:09 | 29.35271 | 60.62096 | 32091 ft | 430 kts | 245° |
| 2026-04-21 00:10 | 29.32384 | 60.56080 | 32090 ft | 430 kts | 245° |
| 2026-04-21 00:10 | 29.29476 | 60.50023 | 32090 ft | 430 kts | 245° |
| 2026-04-21 00:11 | 29.26595 | 60.44038 | 32090 ft | 430 kts | 244° |
| 2026-04-21 00:11 | 29.23683 | 60.37987 | 32090 ft | 430 kts | 245° |
| 2026-04-21 00:12 | 29.20819 | 60.31988 | 32094 ft | 430 kts | 244° |
| 2026-04-21 00:12 | 29.17926 | 60.25955 | 32090 ft | 430 kts | 244° |
| 2026-04-21 00:13 | 29.15024 | 60.19928 | 32090 ft | 430 kts | 244° |
| 2026-04-21 00:13 | 29.12122 | 60.13909 | 32091 ft | 430 kts | 244° |
| 2026-04-21 00:14 | 29.09221 | 60.07908 | 32090 ft | 432 kts | 244° |
| 2026-04-21 00:14 | 29.06310 | 60.01897 | 32089 ft | 434 kts | 244° |
| 2026-04-21 00:15 | 29.03356 | 59.95812 | 32089 ft | 437 kts | 244° |
| 2026-04-21 00:15 | 29.00401 | 59.89735 | 32089 ft | 439 kts | 244° |
| 2026-04-21 00:16 | 28.97420 | 59.83597 | 32089 ft | 442 kts | 244° |
| 2026-04-21 00:16 | 28.94390 | 59.77390 | 32090 ft | 444 kts | 243° |
| 2026-04-21 00:17 | 28.91374 | 59.71247 | 32090 ft | 444 kts | 244° |
| 2026-04-21 00:17 | 28.88349 | 59.65085 | 32090 ft | 444 kts | 244° |
| 2026-04-21 00:18 | 28.85297 | 59.58874 | 32086 ft | 446 kts | 244° |
| 2026-04-21 00:18 | 28.82250 | 59.52691 | 32072 ft | 447 kts | 244° |
| 2026-04-21 00:19 | 28.79189 | 59.46489 | 32063 ft | 447 kts | 243° |
| 2026-04-21 00:19 | 28.76136 | 59.40317 | 32059 ft | 447 kts | 244° |
| 2026-04-21 00:20 | 28.73057 | 59.34098 | 32058 ft | 447 kts | 243° |
| 2026-04-21 00:20 | 28.69984 | 59.27904 | 32058 ft | 447 kts | 243° |
| 2026-04-21 00:21 | 28.66911 | 59.21718 | 32057 ft | 447 kts | 243° |
| 2026-04-21 00:21 | 28.63831 | 59.15524 | 32057 ft | 447 kts | 243° |
| 2026-04-21 00:22 | 28.60740 | 59.09324 | 32056 ft | 447 kts | 243° |
| 2026-04-21 00:22 | 28.57673 | 59.03179 | 32051 ft | 447 kts | 243° |
| 2026-04-21 00:23 | 28.54591 | 58.97008 | 32043 ft | 447 kts | 243° |
| 2026-04-21 00:23 | 28.51518 | 58.90872 | 32032 ft | 448 kts | 243° |
| 2026-04-21 00:24 | 28.48425 | 58.84703 | 32023 ft | 448 kts | 243° |
| 2026-04-21 00:24 | 28.45326 | 58.78534 | 32013 ft | 449 kts | 243° |
| 2026-04-21 00:25 | 28.42234 | 58.72390 | 32013 ft | 449 kts | 243° |
| 2026-04-21 00:25 | 28.39121 | 58.66210 | 32024 ft | 449 kts | 243° |
| 2026-04-21 00:26 | 28.36013 | 58.60054 | 32034 ft | 449 kts | 243° |
| 2026-04-21 00:26 | 28.32910 | 58.53927 | 32034 ft | 448 kts | 243° |
| 2026-04-21 00:27 | 28.29790 | 58.47773 | 32034 ft | 448 kts | 243° |
| 2026-04-21 00:27 | 28.26681 | 58.41643 | 32047 ft | 448 kts | 243° |
| 2026-04-21 00:28 | 28.23584 | 58.35553 | 32074 ft | 448 kts | 243° |
| 2026-04-21 00:28 | 28.20426 | 58.29372 | 32109 ft | 448 kts | 243° |
| 2026-04-21 00:29 | 28.17303 | 58.23273 | 32135 ft | 448 kts | 243° |
| 2026-04-21 00:29 | 28.14183 | 58.17191 | 32150 ft | 448 kts | 242° |
| 2026-04-21 00:30 | 28.11041 | 58.11082 | 32155 ft | 447 kts | 242° |
| 2026-04-21 00:30 | 28.07910 | 58.05004 | 32157 ft | 448 kts | 243° |
| 2026-04-21 00:31 | 28.04753 | 57.98881 | 32159 ft | 447 kts | 242° |
| 2026-04-21 00:31 | 28.01628 | 57.92829 | 32152 ft | 446 kts | 242° |
| 2026-04-21 00:32 | 27.98494 | 57.86771 | 32135 ft | 446 kts | 242° |
| 2026-04-21 00:32 | 27.95352 | 57.80704 | 32118 ft | 445 kts | 242° |
| 2026-04-21 00:33 | 27.92210 | 57.74648 | 32105 ft | 446 kts | 242° |
| 2026-04-21 00:33 | 27.89062 | 57.68589 | 32097 ft | 446 kts | 242° |
| 2026-04-21 00:34 | 27.85889 | 57.62494 | 32094 ft | 446 kts | 243° |
| 2026-04-21 00:34 | 27.82745 | 57.56460 | 32092 ft | 446 kts | 242° |
| 2026-04-21 00:35 | 27.79572 | 57.50387 | 32092 ft | 446 kts | 242° |
| 2026-04-21 00:35 | 27.76401 | 57.44334 | 32093 ft | 446 kts | 242° |
| 2026-04-21 00:36 | 27.73218 | 57.38318 | 32092 ft | 447 kts | 241° |
| 2026-04-21 00:36 | 27.69625 | 57.32506 | 32095 ft | 450 kts | 236° |
| 2026-04-21 00:37 | 27.65547 | 57.27087 | 32093 ft | 451 kts | 231° |
| 2026-04-21 00:37 | 27.61303 | 57.21846 | 32092 ft | 451 kts | 231° |
| 2026-04-21 00:38 | 27.57045 | 57.16600 | 32093 ft | 452 kts | 231° |
| 2026-04-21 00:38 | 27.52773 | 57.11351 | 32093 ft | 451 kts | 231° |
| 2026-04-21 00:39 | 27.48518 | 57.06132 | 32091 ft | 451 kts | 231° |
| 2026-04-21 00:39 | 27.44303 | 57.00923 | 32097 ft | 442 kts | 229° |
| 2026-04-21 00:40 | 27.40120 | 56.95809 | 32093 ft | 439 kts | 229° |
| 2026-04-21 00:40 | 27.35985 | 56.90747 | 32092 ft | 439 kts | 229° |
| 2026-04-21 00:41 | 27.31853 | 56.85701 | 32092 ft | 439 kts | 229° |
| 2026-04-21 00:41 | 27.27712 | 56.80651 | 32093 ft | 438 kts | 229° |
| 2026-04-21 00:42 | 27.23539 | 56.75571 | 32093 ft | 439 kts | 229° |
| 2026-04-21 00:42 | 27.19391 | 56.70524 | 32093 ft | 439 kts | 229° |
| 2026-04-21 00:43 | 27.15226 | 56.65463 | 32093 ft | 438 kts | 229° |
| 2026-04-21 00:43 | 27.11072 | 56.60421 | 32092 ft | 438 kts | 229° |
| 2026-04-21 00:44 | 27.06905 | 56.55370 | 32092 ft | 439 kts | 229° |
| 2026-04-21 00:44 | 27.02744 | 56.50336 | 32092 ft | 439 kts | 229° |
| 2026-04-21 00:45 | 26.96490 | 56.42776 | 32092 ft | 442 kts | 229° |
| 2026-04-21 00:45 | 26.92265 | 56.37681 | 32092 ft | 444 kts | 228° |
| 2026-04-21 00:46 | 26.88014 | 56.32564 | 32094 ft | 447 kts | 228° |
| 2026-04-21 00:46 | 26.83758 | 56.27449 | 32093 ft | 448 kts | 228° |
| 2026-04-21 00:47 | 26.79510 | 56.22353 | 32093 ft | 448 kts | 228° |
| 2026-04-21 00:47 | 26.75063 | 56.17381 | 32091 ft | 450 kts | 219° |
| 2026-04-21 00:48 | 26.69536 | 56.14040 | 32092 ft | 457 kts | 201° |
| 2026-04-21 00:48 | 26.63398 | 56.12142 | 32093 ft | 458 kts | 198° |
| 2026-04-21 00:49 | 26.57212 | 56.10347 | 32093 ft | 458 kts | 198° |
| 2026-04-21 00:49 | 26.51003 | 56.08543 | 32092 ft | 458 kts | 198° |
| 2026-04-21 00:50 | 26.44849 | 56.06752 | 32093 ft | 458 kts | 198° |
| 2026-04-21 00:50 | 26.38674 | 56.04959 | 32092 ft | 458 kts | 198° |
| 2026-04-21 00:51 | 26.32456 | 56.03153 | 32092 ft | 458 kts | 198° |
| 2026-04-21 00:51 | 26.26252 | 56.01527 | 32091 ft | 460 kts | 194° |
| 2026-04-21 00:52 | 26.19842 | 56.00528 | 32092 ft | 462 kts | 191° |
| 2026-04-21 00:52 | 26.13434 | 55.99634 | 32093 ft | 462 kts | 191° |
| 2026-04-21 00:53 | 26.07012 | 55.98739 | 32092 ft | 462 kts | 191° |
| 2026-04-21 00:53 | 26.00630 | 55.97842 | 32093 ft | 462 kts | 191° |
| 2026-04-21 00:54 | 25.97502 | 55.97097 | 32080 ft | 455 kts | 203° |
| 2026-04-21 00:54 | 25.94686 | 55.95491 | 32090 ft | 450 kts | 217° |
| 2026-04-21 00:54 | 25.89954 | 55.90993 | 32095 ft | 449 kts | 223° |
| 2026-04-21 00:55 | 25.85245 | 55.86361 | 32094 ft | 449 kts | 223° |
| 2026-04-21 00:55 | 25.80098 | 55.82339 | 32093 ft | 453 kts | 210° |
| 2026-04-21 00:56 | 25.74405 | 55.79240 | 32093 ft | 454 kts | 208° |
| 2026-04-21 00:56 | 25.68714 | 55.76226 | 32093 ft | 454 kts | 208° |
| 2026-04-21 00:57 | 25.62989 | 55.73177 | 32092 ft | 454 kts | 208° |
| 2026-04-21 00:57 | 25.60216 | 55.71547 | 32075 ft | 442 kts | 217° |
| 2026-04-21 00:57 | 25.58110 | 55.69181 | 32066 ft | 422 kts | 238° |
| 2026-04-21 00:58 | 25.57030 | 55.66253 | 32075 ft | 408 kts | 259° |
| 2026-04-21 00:58 | 25.56998 | 55.63157 | 32091 ft | 397 kts | 272° |
| 2026-04-21 00:58 | 25.57181 | 55.60162 | 32089 ft | 381 kts | 268° |
| 2026-04-21 00:58 | 25.57111 | 55.57283 | 32087 ft | 365 kts | 263° |
| 2026-04-21 00:59 | 25.56825 | 55.54540 | 32085 ft | 350 kts | 259° |
| 2026-04-21 00:59 | 25.56427 | 55.51902 | 32090 ft | 346 kts | 258° |
| 2026-04-21 00:59 | 25.55375 | 55.46685 | 32078 ft | 344 kts | 243° |
| 2026-04-21 01:00 | 25.53937 | 55.44603 | 32082 ft | 346 kts | 220° |
| 2026-04-21 01:00 | 25.51840 | 55.43201 | 32100 ft | 350 kts | 211° |
| 2026-04-21 01:00 | 25.47354 | 55.41110 | 32078 ft | 359 kts | 188° |
| 2026-04-21 01:01 | 25.44838 | 55.41445 | 32087 ft | 374 kts | 165° |
| 2026-04-21 01:01 | 25.42428 | 55.42593 | 32102 ft | 378 kts | 162° |
| 2026-04-21 01:01 | 25.37538 | 55.44661 | 32095 ft | 373 kts | 168° |
| 2026-04-21 01:02 | 25.32548 | 55.46298 | 32092 ft | 372 kts | 170° |
| 2026-04-21 01:02 | 25.27547 | 55.47916 | 32089 ft | 376 kts | 162° |
| 2026-04-21 01:03 | 25.25355 | 55.49535 | 32079 ft | 392 kts | 137° |
| 2026-04-21 01:03 | 25.23840 | 55.52109 | 32096 ft | 405 kts | 119° |
| 2026-04-21 01:03 | 25.21487 | 55.57808 | 32095 ft | 403 kts | 123° |
| 2026-04-21 01:04 | 25.18648 | 55.63180 | 32093 ft | 400 kts | 127° |
| 2026-04-21 01:04 | 25.15708 | 55.68430 | 32092 ft | 401 kts | 127° |
| 2026-04-21 01:05 | 25.12786 | 55.73654 | 32093 ft | 401 kts | 127° |
| 2026-04-21 01:05 | 25.09843 | 55.78919 | 32094 ft | 400 kts | 127° |
| 2026-04-21 01:06 | 25.06881 | 55.84179 | 32091 ft | 397 kts | 130° |
| 2026-04-21 01:06 | 25.04983 | 55.86301 | 32076 ft | 382 kts | 154° |
| 2026-04-21 01:06 | 25.02557 | 55.87318 | 32088 ft | 367 kts | 179° |
| 2026-04-21 01:07 | 25.00088 | 55.87093 | 32092 ft | 357 kts | 203° |
| 2026-04-21 01:07 | 24.97975 | 55.85687 | 32095 ft | 352 kts | 228° |
| 2026-04-21 01:07 | 24.96675 | 55.83392 | 32094 ft | 355 kts | 252° |
| 2026-04-21 01:07 | 24.96443 | 55.80687 | 32094 ft | 362 kts | 277° |
| 2026-04-21 01:08 | 24.97327 | 55.78076 | 32095 ft | 372 kts | 301° |
| 2026-04-21 01:08 | 24.99232 | 55.76041 | 32095 ft | 384 kts | 326° |
| 2026-04-21 01:08 | 25.01751 | 55.74944 | 32108 ft | 392 kts | 339° |
| 2026-04-21 01:08 | 25.04249 | 55.73836 | 32092 ft | 382 kts | 322° |
| 2026-04-21 01:09 | 25.06238 | 55.71992 | 32092 ft | 370 kts | 303° |
| 2026-04-21 01:09 | 25.07560 | 55.69588 | 32098 ft | 361 kts | 290° |
| 2026-04-21 01:09 | 25.09785 | 55.64601 | 32095 ft | 362 kts | 294° |
| 2026-04-21 01:10 | 25.12352 | 55.59776 | 32093 ft | 362 kts | 296° |
| 2026-04-21 01:10 | 25.14997 | 55.55009 | 32094 ft | 361 kts | 296° |
| 2026-04-21 01:11 | 25.17637 | 55.50264 | 32092 ft | 361 kts | 296° |
| 2026-04-21 01:11 | 25.20263 | 55.45537 | 32093 ft | 361 kts | 296° |
| 2026-04-21 01:12 | 25.22889 | 55.40803 | 32092 ft | 361 kts | 296° |
| 2026-04-21 01:12 | 25.25520 | 55.36057 | 32093 ft | 361 kts | 296° |
| 2026-04-21 01:13 | 25.28173 | 55.31271 | 32094 ft | 361 kts | 296° |
| 2026-04-21 01:13 | 25.30789 | 55.26550 | 32093 ft | 361 kts | 296° |
| 2026-04-21 01:14 | 25.33422 | 55.21802 | 32092 ft | 361 kts | 296° |
| 2026-04-21 01:14 | 25.36047 | 55.17078 | 32092 ft | 361 kts | 296° |
| 2026-04-21 01:15 | 25.38694 | 55.12315 | 32092 ft | 361 kts | 296° |
| 2026-04-21 01:15 | 25.41334 | 55.07554 | 32093 ft | 362 kts | 296° |
| 2026-04-21 01:16 | 25.43972 | 55.02797 | 32092 ft | 362 kts | 296° |
| 2026-04-21 01:16 | 25.46610 | 54.98035 | 32093 ft | 362 kts | 296° |
| 2026-04-21 01:17 | 25.49243 | 54.93289 | 32093 ft | 362 kts | 296° |
| 2026-04-21 01:17 | 25.51890 | 54.88508 | 32093 ft | 363 kts | 296° |
| 2026-04-21 01:18 | 25.54526 | 54.83753 | 32093 ft | 362 kts | 296° |
| 2026-04-21 01:18 | 25.57171 | 54.78978 | 32092 ft | 362 kts | 296° |
| 2026-04-21 01:19 | 25.59800 | 54.74231 | 32093 ft | 363 kts | 296° |
| 2026-04-21 01:19 | 25.62451 | 54.69447 | 32093 ft | 362 kts | 296° |
| 2026-04-21 01:20 | 25.65087 | 54.64688 | 32093 ft | 363 kts | 296° |
| 2026-04-21 01:20 | 25.67742 | 54.59912 | 32092 ft | 363 kts | 296° |
| 2026-04-21 01:21 | 25.70394 | 54.55135 | 32092 ft | 362 kts | 296° |
| 2026-04-21 01:21 | 25.73037 | 54.50368 | 32092 ft | 363 kts | 296° |
| 2026-04-21 01:22 | 25.75677 | 54.45615 | 32092 ft | 362 kts | 296° |
| 2026-04-21 01:22 | 25.78315 | 54.40864 | 32087 ft | 362 kts | 296° |
| 2026-04-21 01:23 | 25.80971 | 54.36089 | 32075 ft | 363 kts | 296° |
| 2026-04-21 01:23 | 25.83638 | 54.31295 | 32062 ft | 363 kts | 296° |
| 2026-04-21 01:24 | 25.86281 | 54.26531 | 32050 ft | 363 kts | 296° |
| 2026-04-21 01:24 | 25.88938 | 54.21743 | 32040 ft | 364 kts | 296° |
| 2026-04-21 01:25 | 25.91606 | 54.16933 | 32035 ft | 364 kts | 296° |
| 2026-04-21 01:25 | 25.94258 | 54.12152 | 32032 ft | 363 kts | 296° |
| 2026-04-21 01:26 | 25.96901 | 54.07383 | 32031 ft | 364 kts | 296° |
| 2026-04-21 01:26 | 25.99563 | 54.02584 | 32031 ft | 364 kts | 296° |
| 2026-04-21 01:27 | 26.02216 | 53.97804 | 32031 ft | 363 kts | 297° |
| 2026-04-21 01:27 | 26.04873 | 53.93014 | 32031 ft | 364 kts | 296° |
| 2026-04-21 01:28 | 26.07538 | 53.88207 | 32030 ft | 363 kts | 296° |
| 2026-04-21 01:28 | 26.10208 | 53.83405 | 32031 ft | 363 kts | 297° |
| 2026-04-21 01:29 | 26.12865 | 53.78621 | 32031 ft | 363 kts | 297° |
| 2026-04-21 01:29 | 26.15511 | 53.73857 | 32031 ft | 364 kts | 297° |
| 2026-04-21 01:30 | 26.18192 | 53.69039 | 32030 ft | 363 kts | 297° |
| 2026-04-21 01:30 | 26.20678 | 53.64579 | 32030 ft | 363 kts | 297° |
| 2026-04-21 01:31 | 26.23359 | 53.59770 | 32031 ft | 363 kts | 297° |
| 2026-04-21 01:31 | 26.26024 | 53.54978 | 32031 ft | 363 kts | 297° |
| 2026-04-21 01:32 | 26.28679 | 53.50209 | 32031 ft | 363 kts | 297° |
| 2026-04-21 01:32 | 26.31339 | 53.45424 | 32031 ft | 363 kts | 297° |
| 2026-04-21 01:33 | 26.34001 | 53.40635 | 32031 ft | 363 kts | 297° |
| 2026-04-21 01:33 | 26.36678 | 53.35827 | 32031 ft | 363 kts | 297° |
| 2026-04-21 01:34 | 26.39359 | 53.31015 | 32032 ft | 363 kts | 296° |
| 2026-04-21 01:34 | 26.42035 | 53.26213 | 32031 ft | 363 kts | 296° |
| 2026-04-21 01:35 | 26.44704 | 53.21418 | 32037 ft | 362 kts | 297° |
| 2026-04-21 01:35 | 26.47378 | 53.16629 | 32048 ft | 363 kts | 297° |
| 2026-04-21 01:36 | 26.50056 | 53.11834 | 32059 ft | 363 kts | 297° |
| 2026-04-21 01:36 | 26.52737 | 53.07032 | 32070 ft | 363 kts | 297° |
| 2026-04-21 01:37 | 26.55405 | 53.02255 | 32077 ft | 362 kts | 297° |
| 2026-04-21 01:37 | 26.58104 | 52.97427 | 32081 ft | 362 kts | 297° |
| 2026-04-21 01:38 | 26.60791 | 52.92648 | 32083 ft | 362 kts | 297° |
| 2026-04-21 01:38 | 26.63466 | 52.87907 | 32084 ft | 362 kts | 297° |
| 2026-04-21 01:39 | 26.66147 | 52.83172 | 32084 ft | 361 kts | 297° |
| 2026-04-21 01:39 | 26.68861 | 52.78399 | 32084 ft | 361 kts | 297° |
| 2026-04-21 01:40 | 26.71553 | 52.73667 | 32084 ft | 361 kts | 297° |
| 2026-04-21 01:40 | 26.74248 | 52.68940 | 32084 ft | 361 kts | 297° |
| 2026-04-21 01:41 | 26.76954 | 52.64193 | 32084 ft | 361 kts | 297° |
| 2026-04-21 01:41 | 26.79650 | 52.59460 | 32084 ft | 361 kts | 297° |
| 2026-04-21 01:42 | 26.82362 | 52.54701 | 32084 ft | 361 kts | 297° |
| 2026-04-21 01:42 | 26.85059 | 52.49969 | 32084 ft | 361 kts | 297° |
| 2026-04-21 01:43 | 26.87771 | 52.45214 | 32084 ft | 361 kts | 297° |
| 2026-04-21 01:43 | 26.90468 | 52.40501 | 32084 ft | 361 kts | 297° |
| 2026-04-21 01:44 | 26.93214 | 52.35769 | 32084 ft | 361 kts | 297° |
| 2026-04-21 01:44 | 26.95988 | 52.31055 | 32085 ft | 360 kts | 297° |
| 2026-04-21 01:45 | 26.98765 | 52.26399 | 32084 ft | 360 kts | 297° |
| 2026-04-21 01:45 | 27.01597 | 52.21719 | 32084 ft | 361 kts | 297° |
| 2026-04-21 01:46 | 27.04443 | 52.17093 | 32084 ft | 361 kts | 297° |
| 2026-04-21 01:46 | 27.07323 | 52.12460 | 32084 ft | 361 kts | 297° |
| 2026-04-21 01:47 | 27.10184 | 52.07855 | 32084 ft | 361 kts | 297° |
| 2026-04-21 01:47 | 27.13056 | 52.03237 | 32083 ft | 360 kts | 297° |
| 2026-04-21 01:48 | 27.15928 | 51.98614 | 32083 ft | 361 kts | 297° |
| 2026-04-21 01:48 | 27.18819 | 51.93971 | 32084 ft | 361 kts | 297° |
| 2026-04-21 01:49 | 27.21676 | 51.89375 | 32083 ft | 360 kts | 297° |
| 2026-04-21 01:49 | 27.24558 | 51.84743 | 32084 ft | 361 kts | 297° |
| 2026-04-21 01:50 | 27.27455 | 51.80091 | 32083 ft | 361 kts | 297° |
| 2026-04-21 01:50 | 27.30361 | 51.75510 | 32081 ft | 365 kts | 302° |
| 2026-04-21 01:51 | 27.34305 | 51.71700 | 32083 ft | 383 kts | 321° |
| 2026-04-21 01:51 | 27.39340 | 51.69434 | 32084 ft | 402 kts | 341° |
| 2026-04-21 01:52 | 27.42142 | 51.69038 | 32084 ft | 411 kts | 352° |
| 2026-04-21 01:52 | 27.47892 | 51.69978 | 32085 ft | 429 kts | 15° |
| 2026-04-21 01:52 | 27.50633 | 51.71358 | 32086 ft | 437 kts | 27° |
| 2026-04-21 01:53 | 27.53165 | 51.73355 | 32089 ft | 454 kts | 40° |
| 2026-04-21 01:53 | 27.55375 | 51.75957 | 32088 ft | 468 kts | 53° |
| 2026-04-21 01:53 | 27.57131 | 51.79113 | 32090 ft | 480 kts | 66° |
| 2026-04-21 01:53 | 27.58296 | 51.82708 | 32089 ft | 489 kts | 79° |
| 2026-04-21 01:54 | 27.58761 | 51.86517 | 32089 ft | 495 kts | 93° |
| 2026-04-21 01:54 | 27.58497 | 51.90371 | 32089 ft | 499 kts | 106° |
| 2026-04-21 01:54 | 27.57489 | 51.94122 | 32089 ft | 500 kts | 119° |
| 2026-04-21 01:54 | 27.55783 | 51.97549 | 32088 ft | 497 kts | 131° |
| 2026-04-21 01:55 | 27.53723 | 52.00702 | 32093 ft | 498 kts | 133° |
| 2026-04-21 01:55 | 27.49514 | 52.06915 | 32086 ft | 499 kts | 133° |
| 2026-04-21 01:56 | 27.45318 | 52.13192 | 32084 ft | 499 kts | 133° |
| 2026-04-21 01:56 | 27.41053 | 52.19430 | 32085 ft | 497 kts | 135° |
| 2026-04-21 01:57 | 27.36644 | 52.25503 | 32084 ft | 497 kts | 135° |
| 2026-04-21 01:57 | 27.32265 | 52.31570 | 32084 ft | 498 kts | 135° |
| 2026-04-21 01:58 | 27.27940 | 52.37601 | 32085 ft | 498 kts | 135° |
| 2026-04-21 01:58 | 27.23602 | 52.43664 | 32084 ft | 497 kts | 135° |
| 2026-04-21 01:59 | 27.19242 | 52.49751 | 32084 ft | 497 kts | 135° |
| 2026-04-21 01:59 | 27.14890 | 52.55824 | 32085 ft | 497 kts | 135° |
| 2026-04-21 02:00 | 27.10523 | 52.61909 | 32085 ft | 497 kts | 135° |
| 2026-04-21 02:00 | 27.06164 | 52.67974 | 32081 ft | 497 kts | 135° |
| 2026-04-21 02:01 | 27.01835 | 52.73988 | 32083 ft | 497 kts | 135° |
| 2026-04-21 02:01 | 26.97405 | 52.80125 | 32083 ft | 498 kts | 135° |
| 2026-04-21 02:02 | 26.93048 | 52.86158 | 32084 ft | 499 kts | 134° |
| 2026-04-21 02:02 | 26.88629 | 52.92270 | 32086 ft | 499 kts | 134° |
| 2026-04-21 02:03 | 26.84232 | 52.98350 | 32084 ft | 499 kts | 133° |
| 2026-04-21 02:03 | 26.79861 | 53.04388 | 32084 ft | 499 kts | 133° |
| 2026-04-21 02:04 | 26.75494 | 53.10410 | 32084 ft | 499 kts | 133° |
| 2026-04-21 02:04 | 26.71101 | 53.16460 | 32084 ft | 499 kts | 133° |
| 2026-04-21 02:05 | 26.66734 | 53.22463 | 32084 ft | 499 kts | 133° |
| 2026-04-21 02:05 | 26.62346 | 53.28486 | 32083 ft | 497 kts | 133° |
| 2026-04-21 02:06 | 26.57967 | 53.34487 | 32088 ft | 497 kts | 133° |
| 2026-04-21 02:06 | 26.53600 | 53.40465 | 32088 ft | 497 kts | 133° |
| 2026-04-21 02:07 | 26.49197 | 53.46486 | 32054 ft | 498 kts | 133° |
| 2026-04-21 02:07 | 26.46998 | 53.49491 | 31814 ft | 496 kts | 133° |
| 2026-04-21 02:07 | 26.44828 | 53.52455 | 31563 ft | 493 kts | 133° |
| 2026-04-21 02:07 | 26.42656 | 53.55419 | 31313 ft | 489 kts | 133° |
| 2026-04-21 02:08 | 26.40509 | 53.58347 | 31014 ft | 486 kts | 133° |
| 2026-04-21 02:08 | 26.38375 | 53.61253 | 30610 ft | 484 kts | 133° |
| 2026-04-21 02:08 | 26.36259 | 53.64133 | 30128 ft | 483 kts | 133° |
| 2026-04-21 02:08 | 26.34080 | 53.67095 | 29571 ft | 482 kts | 134° |
| 2026-04-21 02:09 | 26.31965 | 53.69968 | 29020 ft | 480 kts | 134° |
| 2026-04-21 02:09 | 26.29821 | 53.72879 | 28436 ft | 479 kts | 133° |
| 2026-04-21 02:09 | 26.27719 | 53.75732 | 27854 ft | 476 kts | 133° |
| 2026-04-21 02:09 | 26.25637 | 53.78559 | 27475 ft | 468 kts | 133° |
| 2026-04-21 02:10 | 26.23552 | 53.81387 | 27102 ft | 466 kts | 133° |
| 2026-04-21 02:10 | 26.21504 | 53.84163 | 26636 ft | 462 kts | 133° |
| 2026-04-21 02:10 | 26.19474 | 53.86915 | 26206 ft | 457 kts | 133° |
| 2026-04-21 02:10 | 26.17458 | 53.89654 | 25787 ft | 452 kts | 133° |
| 2026-04-21 02:11 | 26.15461 | 53.92367 | 25365 ft | 447 kts | 133° |
| 2026-04-21 02:11 | 26.13478 | 53.95057 | 24943 ft | 443 kts | 133° |
| 2026-04-21 02:11 | 26.11538 | 53.97682 | 24529 ft | 438 kts | 132° |
| 2026-04-21 02:11 | 26.09576 | 54.00334 | 24101 ft | 434 kts | 132° |
| 2026-04-21 02:12 | 26.07664 | 54.02913 | 23671 ft | 430 kts | 132° |
| 2026-04-21 02:12 | 26.05777 | 54.05456 | 23251 ft | 426 kts | 132° |
| 2026-04-21 02:12 | 26.03868 | 54.08029 | 22813 ft | 423 kts | 132° |
| 2026-04-21 02:12 | 26.02008 | 54.10535 | 22386 ft | 420 kts | 132° |
| 2026-04-21 02:13 | 26.00149 | 54.13036 | 21954 ft | 416 kts | 131° |
| 2026-04-21 02:13 | 25.98313 | 54.15509 | 21518 ft | 413 kts | 131° |
| 2026-04-21 02:13 | 25.96454 | 54.18009 | 21072 ft | 410 kts | 131° |
| 2026-04-21 02:13 | 25.94640 | 54.20448 | 20633 ft | 407 kts | 131° |
| 2026-04-21 02:14 | 25.92844 | 54.22862 | 20191 ft | 404 kts | 131° |
| 2026-04-21 02:14 | 25.91062 | 54.25256 | 19749 ft | 400 kts | 131° |
| 2026-04-21 02:14 | 25.89307 | 54.27613 | 19307 ft | 397 kts | 131° |
| 2026-04-21 02:14 | 25.87535 | 54.29992 | 18865 ft | 394 kts | 130° |
| 2026-04-21 02:15 | 25.85795 | 54.32325 | 18421 ft | 391 kts | 130° |
| 2026-04-21 02:15 | 25.84063 | 54.34649 | 17977 ft | 388 kts | 130° |
| 2026-04-21 02:15 | 25.82322 | 54.36982 | 17528 ft | 385 kts | 130° |
| 2026-04-21 02:15 | 25.80624 | 54.39258 | 17087 ft | 382 kts | 130° |
| 2026-04-21 02:16 | 25.78934 | 54.41521 | 16645 ft | 379 kts | 130° |
| 2026-04-21 02:16 | 25.77255 | 54.43769 | 16206 ft | 376 kts | 130° |
| 2026-04-21 02:16 | 25.75572 | 54.46021 | 15761 ft | 374 kts | 129° |
| 2026-04-21 02:16 | 25.73919 | 54.48232 | 15324 ft | 371 kts | 129° |
| 2026-04-21 02:17 | 25.72274 | 54.50430 | 14887 ft | 369 kts | 129° |
| 2026-04-21 02:17 | 25.70637 | 54.52617 | 14452 ft | 367 kts | 129° |
| 2026-04-21 02:17 | 25.68990 | 54.54818 | 14015 ft | 365 kts | 129° |
| 2026-04-21 02:17 | 25.67386 | 54.56960 | 13587 ft | 363 kts | 129° |
| 2026-04-21 02:18 | 25.65780 | 54.59104 | 13160 ft | 360 kts | 129° |
| 2026-04-21 02:18 | 25.64192 | 54.61222 | 12929 ft | 351 kts | 129° |
| 2026-04-21 02:18 | 25.62658 | 54.63269 | 12822 ft | 338 kts | 129° |
| 2026-04-21 02:18 | 25.62333 | 54.63703 | 12795 ft | 335 kts | 129° |
| 2026-04-21 02:19 | 25.60887 | 54.65633 | 12680 ft | 323 kts | 129° |
| 2026-04-21 02:19 | 25.59455 | 54.67545 | 12576 ft | 311 kts | 129° |
| 2026-04-21 02:19 | 25.58101 | 54.69352 | 12485 ft | 298 kts | 129° |
| 2026-04-21 02:19 | 25.56808 | 54.71075 | 12396 ft | 286 kts | 129° |
| 2026-04-21 02:20 | 25.55562 | 54.72734 | 12309 ft | 274 kts | 129° |
| 2026-04-21 02:20 | 25.54364 | 54.74329 | 12226 ft | 262 kts | 129° |
| 2026-04-21 02:20 | 25.53206 | 54.75868 | 12147 ft | 253 kts | 129° |
| 2026-04-21 02:20 | 25.52106 | 54.77377 | 12070 ft | 248 kts | 125° |
| 2026-04-21 02:21 | 25.51182 | 54.78995 | 12013 ft | 254 kts | 117° |
| 2026-04-21 02:21 | 25.50401 | 54.80830 | 12029 ft | 263 kts | 114° |
| 2026-04-21 02:21 | 25.49670 | 54.82713 | 12030 ft | 265 kts | 113° |
| 2026-04-21 02:21 | 25.48946 | 54.84601 | 12029 ft | 265 kts | 113° |
| 2026-04-21 02:22 | 25.48219 | 54.86491 | 12028 ft | 265 kts | 113° |
| 2026-04-21 02:22 | 25.47493 | 54.88366 | 12025 ft | 265 kts | 113° |
| 2026-04-21 02:22 | 25.46763 | 54.90248 | 11962 ft | 266 kts | 113° |
| 2026-04-21 02:22 | 25.46018 | 54.92160 | 11626 ft | 266 kts | 113° |
| 2026-04-21 02:23 | 25.45286 | 54.94039 | 11306 ft | 264 kts | 113° |
| 2026-04-21 02:23 | 25.44522 | 54.95889 | 11005 ft | 262 kts | 117° |
| 2026-04-21 02:23 | 25.43643 | 54.97647 | 10900 ft | 260 kts | 119° |
| 2026-04-21 02:23 | 25.42743 | 54.99390 | 10927 ft | 261 kts | 119° |
| 2026-04-21 02:24 | 25.41839 | 55.01136 | 10953 ft | 260 kts | 119° |
| 2026-04-21 02:24 | 25.41176 | 55.02417 | 10972 ft | 260 kts | 119° |
| 2026-04-21 02:24 | 25.40352 | 55.04007 | 10995 ft | 260 kts | 119° |
| 2026-04-21 02:24 | 25.39432 | 55.05780 | 11012 ft | 260 kts | 120° |
| 2026-04-21 02:25 | 25.38744 | 55.07107 | 10980 ft | 260 kts | 120° |
| 2026-04-21 02:25 | 25.38059 | 55.08425 | 10762 ft | 260 kts | 120° |
| 2026-04-21 02:25 | 25.37151 | 55.10170 | 10461 ft | 258 kts | 120° |
| 2026-04-21 02:25 | 25.36356 | 55.11942 | 10183 ft | 255 kts | 108° |
| 2026-04-21 02:26 | 25.36005 | 55.13855 | 9899 ft | 253 kts | 94° |
| 2026-04-21 02:26 | 25.35938 | 55.15797 | 9579 ft | 252 kts | 91° |
| 2026-04-21 02:26 | 25.35912 | 55.17748 | 9293 ft | 249 kts | 91° |
| 2026-04-21 02:26 | 25.35888 | 55.19664 | 9040 ft | 246 kts | 91° |
| 2026-04-21 02:27 | 25.35859 | 55.21548 | 8800 ft | 242 kts | 91° |
| 2026-04-21 02:27 | 25.35825 | 55.23411 | 8567 ft | 239 kts | 91° |
| 2026-04-21 02:27 | 25.35790 | 55.25244 | 8337 ft | 236 kts | 91° |
| 2026-04-21 02:27 | 25.35753 | 55.27050 | 8151 ft | 231 kts | 91° |
| 2026-04-21 02:28 | 25.35716 | 55.28817 | 8140 ft | 223 kts | 91° |
| 2026-04-21 02:28 | 25.35680 | 55.30552 | 8104 ft | 223 kts | 91° |
| 2026-04-21 02:28 | 25.35582 | 55.32219 | 8018 ft | 210 kts | 101° |
| 2026-04-21 02:28 | 25.35065 | 55.33680 | 7868 ft | 200 kts | 116° |
| 2026-04-21 02:29 | 25.34362 | 55.34993 | 7530 ft | 197 kts | 120° |
| 2026-04-21 02:29 | 25.33637 | 55.36264 | 7209 ft | 193 kts | 121° |
| 2026-04-21 02:29 | 25.32926 | 55.37508 | 6883 ft | 190 kts | 120° |
| 2026-04-21 02:29 | 25.32219 | 55.38758 | 6522 ft | 189 kts | 120° |
| 2026-04-21 02:30 | 25.31528 | 55.39989 | 6160 ft | 188 kts | 120° |
| 2026-04-21 02:30 | 25.30838 | 55.41224 | 5800 ft | 188 kts | 120° |
| 2026-04-21 02:30 | 25.30147 | 55.42462 | 5442 ft | 188 kts | 120° |
| 2026-04-21 02:30 | 25.29466 | 55.43683 | 5090 ft | 187 kts | 120° |
| 2026-04-21 02:31 | 25.28783 | 55.44909 | 4739 ft | 187 kts | 120° |
| 2026-04-21 02:31 | 25.28100 | 55.46136 | 4390 ft | 186 kts | 120° |
| 2026-04-21 02:31 | 25.27413 | 55.47369 | 4041 ft | 186 kts | 120° |
| 2026-04-21 02:31 | 25.26736 | 55.48584 | 3699 ft | 185 kts | 119° |
| 2026-04-21 02:32 | 25.26062 | 55.49797 | 3360 ft | 185 kts | 119° |
| 2026-04-21 02:32 | 25.25383 | 55.51018 | 3022 ft | 184 kts | 119° |
| 2026-04-21 02:32 | 25.24715 | 55.52220 | 2666 ft | 184 kts | 120° |
| 2026-04-21 02:32 | 25.23985 | 55.53379 | 2307 ft | 185 kts | 136° |
| 2026-04-21 02:33 | 25.22816 | 55.53907 | 2022 ft | 188 kts | 179° |
| 2026-04-21 02:33 | 25.21558 | 55.53491 | 2027 ft | 191 kts | 206° |
| 2026-04-21 02:33 | 25.20392 | 55.52740 | 2027 ft | 191 kts | 211° |
| 2026-04-21 02:33 | 25.19273 | 55.51929 | 2019 ft | 192 kts | 220° |
| 2026-04-21 02:34 | 25.18559 | 55.50725 | 2011 ft | 191 kts | 251° |
| 2026-04-21 02:34 | 25.18383 | 55.49288 | 2005 ft | 188 kts | 281° |
| 2026-04-21 02:34 | 25.18822 | 55.47975 | 1843 ft | 173 kts | 300° |
| 2026-04-21 02:34 | 25.19444 | 55.46874 | 1614 ft | 165 kts | 306° |
| 2026-04-21 02:35 | 25.20082 | 55.45818 | 1407 ft | 164 kts | 304° |
| 2026-04-21 02:35 | 25.20696 | 55.44746 | 1195 ft | 163 kts | 303° |
| 2026-04-21 02:35 | 25.21275 | 55.43692 | 974 ft | 157 kts | 302° |
| 2026-04-21 02:35 | 25.21832 | 55.42646 | 751 ft | 155 kts | 301° |
| 2026-04-21 02:36 | 25.22368 | 55.41661 | 570 ft | 154 kts | 304° |
| 2026-04-21 02:36 | 25.22944 | 55.40666 | 365 ft | 153 kts | 304° |
| 2026-04-21 02:36 | 25.23510 | 55.39658 | 132 ft | 152 kts | 300° |
| 2026-04-21 02:36 | 25.23998 | 55.38731 | 80 ft | 116 kts | 302° |
| 2026-04-21 02:37 | 25.24331 | 55.38141 | 80 ft | 64 kts | 301° |
| 2026-04-21 02:37 | 25.24488 | 55.37860 | 80 ft | 33 kts | 302° |
| 2026-04-21 02:37 | 25.24591 | 55.37636 | 80 ft | 32 kts | 285° |
| 2026-04-21 02:37 | 25.24617 | 55.37379 | 80 ft | 33 kts | 272° |
| 2026-04-21 02:38 | 25.24681 | 55.37149 | 80 ft | 31 kts | 300° |
| 2026-04-21 02:38 | 25.24799 | 55.36941 | 80 ft | 30 kts | 300° |
| 2026-04-21 02:38 | 25.24871 | 55.36730 | 80 ft | 29 kts | 283° |
| 2026-04-21 02:38 | 25.24958 | 55.36539 | 80 ft | 19 kts | 301° |
| 2026-04-21 02:39 | 25.24971 | 55.36459 | 80 ft | 9 kts | 225° |
| 2026-04-21 02:39 | 25.24929 | 55.36431 | 80 ft | 8 kts | 213° |
| 2026-04-21 02:39 | 25.24873 | 55.36391 | 80 ft | 9 kts | 211° |
| 2026-04-21 02:39 | 25.24832 | 55.36364 | 80 ft | 0 kts | 211° |